AAL486 TBPB-LSZH
Flight info
| Callsign | AAL486 |
|---|---|
| Flight time | 8h 5m |
| Altitude | 37000 |
| Route | 17N055W/M083F370 21N051W 25N047W/M083F390 28N042W 32N037W 35N032W 38N026W 41N019W/M083F410 DCT KOPAS/N0471F400 DCT BERUX/N0477F410 DCT SOSOV/N0474F400 DCT INCEF DCT GALOF DCT TUDRA DCT ENUPA DCT LUSAR DCT BERSU |
| Aircraft | B772/H-SDE2E3FGHIJ5LORVWXY/LB1D1 |
Departure
| Time | 2026-04-25 15:09 |
|---|---|
| Airport | Grantley Adams International Airport (TBPB) |
Arrival
| Time | 2026-04-25 23:15 |
|---|---|
| Airport | Zürich Airport (LSZH) |
| Time | Latitude | Longitude | Altitude | Speed | Heading |
|---|---|---|---|---|---|
| 2026-04-25 14:27 | 13.07848 | -59.48875 | 174 ft | 0 kts | 345° |
| 2026-04-25 14:58 | 13.07842 | -59.48873 | 174 ft | 4 kts | 344° |
| 2026-04-25 14:58 | 13.07816 | -59.48865 | 174 ft | 4 kts | 341° |
| 2026-04-25 14:58 | 13.07791 | -59.48856 | 174 ft | 4 kts | 337° |
| 2026-04-25 14:59 | 13.07766 | -59.48844 | 174 ft | 4 kts | 332° |
| 2026-04-25 14:59 | 13.07744 | -59.48830 | 174 ft | 4 kts | 317° |
| 2026-04-25 14:59 | 13.07730 | -59.48810 | 174 ft | 4 kts | 267° |
| 2026-04-25 14:59 | 13.07730 | -59.48805 | 174 ft | 0 kts | 256° |
| 2026-04-25 15:02 | 13.07728 | -59.48814 | 174 ft | 4 kts | 256° |
| 2026-04-25 15:02 | 13.07720 | -59.48846 | 174 ft | 6 kts | 256° |
| 2026-04-25 15:02 | 13.07706 | -59.48902 | 174 ft | 10 kts | 256° |
| 2026-04-25 15:03 | 13.07688 | -59.48977 | 174 ft | 11 kts | 256° |
| 2026-04-25 15:03 | 13.07668 | -59.49058 | 175 ft | 12 kts | 256° |
| 2026-04-25 15:03 | 13.07648 | -59.49141 | 175 ft | 12 kts | 256° |
| 2026-04-25 15:03 | 13.07627 | -59.49225 | 175 ft | 12 kts | 256° |
| 2026-04-25 15:04 | 13.07606 | -59.49311 | 175 ft | 14 kts | 256° |
| 2026-04-25 15:04 | 13.07582 | -59.49410 | 175 ft | 14 kts | 256° |
| 2026-04-25 15:04 | 13.07558 | -59.49507 | 175 ft | 14 kts | 256° |
| 2026-04-25 15:04 | 13.07534 | -59.49605 | 176 ft | 14 kts | 256° |
| 2026-04-25 15:05 | 13.07510 | -59.49703 | 176 ft | 14 kts | 256° |
| 2026-04-25 15:05 | 13.07486 | -59.49802 | 176 ft | 14 kts | 255° |
| 2026-04-25 15:05 | 13.07461 | -59.49900 | 176 ft | 14 kts | 256° |
| 2026-04-25 15:06 | 13.07414 | -59.50096 | 177 ft | 14 kts | 256° |
| 2026-04-25 15:06 | 13.07389 | -59.50195 | 177 ft | 14 kts | 256° |
| 2026-04-25 15:06 | 13.07365 | -59.50292 | 177 ft | 14 kts | 256° |
| 2026-04-25 15:06 | 13.07341 | -59.50390 | 178 ft | 14 kts | 256° |
| 2026-04-25 15:07 | 13.07317 | -59.50488 | 178 ft | 14 kts | 256° |
| 2026-04-25 15:07 | 13.07293 | -59.50586 | 178 ft | 14 kts | 256° |
| 2026-04-25 15:07 | 13.07268 | -59.50684 | 178 ft | 14 kts | 254° |
| 2026-04-25 15:07 | 13.07223 | -59.50730 | 178 ft | 11 kts | 183° |
| 2026-04-25 15:08 | 13.07146 | -59.50717 | 178 ft | 11 kts | 167° |
| 2026-04-25 15:08 | 13.07103 | -59.50664 | 178 ft | 16 kts | 90° |
| 2026-04-25 15:08 | 13.07141 | -59.50523 | 178 ft | 35 kts | 76° |
| 2026-04-25 15:08 | 13.07255 | -59.50058 | 179 ft | 99 kts | 76° |
| 2026-04-25 15:09 | 13.07476 | -59.49170 | 182 ft | 154 kts | 76° |
| 2026-04-25 15:09 | 13.07785 | -59.48116 | 732 ft | 153 kts | 65° |
| 2026-04-25 15:09 | 13.09200 | -59.46347 | 2013 ft | 169 kts | 52° |
| 2026-04-25 15:10 | 13.10044 | -59.45384 | 2278 ft | 194 kts | 51° |
| 2026-04-25 15:10 | 13.11001 | -59.44295 | 2571 ft | 218 kts | 51° |
| 2026-04-25 15:10 | 13.13186 | -59.41838 | 3407 ft | 239 kts | 51° |
| 2026-04-25 15:11 | 13.14318 | -59.40576 | 3980 ft | 242 kts | 51° |
| 2026-04-25 15:11 | 13.15465 | -59.39298 | 4546 ft | 245 kts | 50° |
| 2026-04-25 15:11 | 13.16608 | -59.38027 | 5147 ft | 246 kts | 51° |
| 2026-04-25 15:12 | 13.18972 | -59.35395 | 6203 ft | 254 kts | 51° |
| 2026-04-25 15:12 | 13.20180 | -59.34052 | 6710 ft | 257 kts | 50° |
| 2026-04-25 15:12 | 13.21401 | -59.32694 | 7158 ft | 262 kts | 49° |
| 2026-04-25 15:12 | 13.21825 | -59.32222 | 7224 ft | 268 kts | 49° |
| 2026-04-25 15:13 | 13.23989 | -59.29812 | 7802 ft | 285 kts | 50° |
| 2026-04-25 15:13 | 13.26723 | -59.26771 | 8763 ft | 294 kts | 50° |
| 2026-04-25 15:13 | 13.28121 | -59.25217 | 9257 ft | 297 kts | 49° |
| 2026-04-25 15:14 | 13.29532 | -59.23647 | 9774 ft | 301 kts | 48° |
| 2026-04-25 15:14 | 13.30964 | -59.22053 | 10206 ft | 306 kts | 49° |
| 2026-04-25 15:14 | 13.32456 | -59.20392 | 10347 ft | 326 kts | 49° |
| 2026-04-25 15:14 | 13.34018 | -59.18651 | 10493 ft | 345 kts | 49° |
| 2026-04-25 15:15 | 13.35693 | -59.16787 | 10622 ft | 366 kts | 48° |
| 2026-04-25 15:15 | 13.37464 | -59.14813 | 10844 ft | 383 kts | 48° |
| 2026-04-25 15:15 | 13.39298 | -59.12770 | 11359 ft | 392 kts | 48° |
| 2026-04-25 15:15 | 13.41166 | -59.10687 | 11940 ft | 400 kts | 48° |
| 2026-04-25 15:16 | 13.43040 | -59.08600 | 12672 ft | 405 kts | 49° |
| 2026-04-25 15:16 | 13.44972 | -59.06446 | 13322 ft | 411 kts | 48° |
| 2026-04-25 15:16 | 13.48877 | -59.02090 | 14820 ft | 418 kts | 47° |
| 2026-04-25 15:17 | 13.52815 | -58.97695 | 16306 ft | 423 kts | 47° |
| 2026-04-25 15:17 | 13.54815 | -58.95461 | 17095 ft | 425 kts | 48° |
| 2026-04-25 15:17 | 13.56830 | -58.93211 | 17775 ft | 430 kts | 47° |
| 2026-04-25 15:18 | 13.58875 | -58.90926 | 18382 ft | 437 kts | 47° |
| 2026-04-25 15:18 | 13.62322 | -58.87074 | 19325 ft | 445 kts | 47° |
| 2026-04-25 15:18 | 13.64432 | -58.84716 | 19936 ft | 449 kts | 48° |
| 2026-04-25 15:19 | 13.66569 | -58.82325 | 20493 ft | 455 kts | 48° |
| 2026-04-25 15:19 | 13.67992 | -58.80733 | 20886 ft | 458 kts | 48° |
| 2026-04-25 15:19 | 13.70879 | -58.77501 | 21503 ft | 468 kts | 48° |
| 2026-04-25 15:19 | 13.73096 | -58.75019 | 22063 ft | 471 kts | 48° |
| 2026-04-25 15:20 | 13.75327 | -58.72521 | 22644 ft | 474 kts | 48° |
| 2026-04-25 15:20 | 13.77560 | -58.70020 | 23281 ft | 475 kts | 48° |
| 2026-04-25 15:20 | 13.79810 | -58.67500 | 23774 ft | 479 kts | 48° |
| 2026-04-25 15:20 | 13.82080 | -58.64956 | 24175 ft | 483 kts | 48° |
| 2026-04-25 15:21 | 13.84328 | -58.62436 | 24608 ft | 486 kts | 48° |
| 2026-04-25 15:21 | 13.86622 | -58.59864 | 25059 ft | 488 kts | 48° |
| 2026-04-25 15:21 | 13.88926 | -58.57279 | 25468 ft | 491 kts | 48° |
| 2026-04-25 15:21 | 13.91239 | -58.54683 | 25860 ft | 493 kts | 48° |
| 2026-04-25 15:22 | 13.93571 | -58.52065 | 26236 ft | 496 kts | 48° |
| 2026-04-25 15:22 | 13.95908 | -58.49441 | 26618 ft | 499 kts | 48° |
| 2026-04-25 15:22 | 13.98262 | -58.46797 | 26993 ft | 501 kts | 48° |
| 2026-04-25 15:22 | 14.00631 | -58.44142 | 27299 ft | 505 kts | 47° |
| 2026-04-25 15:23 | 14.02990 | -58.41502 | 27647 ft | 507 kts | 48° |
| 2026-04-25 15:23 | 14.05381 | -58.38822 | 27980 ft | 509 kts | 47° |
| 2026-04-25 15:23 | 14.07787 | -58.36120 | 28266 ft | 512 kts | 47° |
| 2026-04-25 15:23 | 14.10200 | -58.33405 | 28565 ft | 514 kts | 47° |
| 2026-04-25 15:24 | 14.12624 | -58.30677 | 28850 ft | 516 kts | 47° |
| 2026-04-25 15:24 | 14.15023 | -58.27974 | 29123 ft | 518 kts | 47° |
| 2026-04-25 15:24 | 14.17460 | -58.25227 | 29383 ft | 519 kts | 47° |
| 2026-04-25 15:24 | 14.19073 | -58.23409 | 29542 ft | 521 kts | 47° |
| 2026-04-25 15:25 | 14.22359 | -58.19705 | 29891 ft | 522 kts | 47° |
| 2026-04-25 15:25 | 14.24808 | -58.16944 | 30232 ft | 520 kts | 47° |
| 2026-04-25 15:25 | 14.27255 | -58.14184 | 30500 ft | 520 kts | 47° |
| 2026-04-25 15:25 | 14.29664 | -58.11466 | 30723 ft | 521 kts | 47° |
| 2026-04-25 15:26 | 14.32118 | -58.08697 | 30900 ft | 523 kts | 47° |
| 2026-04-25 15:26 | 14.34581 | -58.05915 | 31122 ft | 523 kts | 47° |
| 2026-04-25 15:26 | 14.37039 | -58.03140 | 31374 ft | 523 kts | 47° |
| 2026-04-25 15:26 | 14.39496 | -58.00364 | 31629 ft | 523 kts | 47° |
| 2026-04-25 15:27 | 14.41915 | -57.97631 | 31845 ft | 523 kts | 47° |
| 2026-04-25 15:27 | 14.44368 | -57.94857 | 32060 ft | 523 kts | 47° |
| 2026-04-25 15:27 | 14.49285 | -57.89295 | 32590 ft | 522 kts | 48° |
| 2026-04-25 15:28 | 14.51738 | -57.86520 | 32832 ft | 522 kts | 48° |
| 2026-04-25 15:28 | 14.54191 | -57.83742 | 33046 ft | 523 kts | 48° |
| 2026-04-25 15:28 | 14.56615 | -57.80997 | 33226 ft | 524 kts | 48° |
| 2026-04-25 15:28 | 14.59075 | -57.78210 | 33389 ft | 525 kts | 48° |
| 2026-04-25 15:29 | 14.61547 | -57.75408 | 33618 ft | 525 kts | 48° |
| 2026-04-25 15:29 | 14.64006 | -57.72620 | 33869 ft | 525 kts | 48° |
| 2026-04-25 15:29 | 14.66469 | -57.69827 | 34095 ft | 525 kts | 48° |
| 2026-04-25 15:29 | 14.68931 | -57.67034 | 34311 ft | 524 kts | 48° |
| 2026-04-25 15:30 | 14.71361 | -57.64276 | 34550 ft | 523 kts | 48° |
| 2026-04-25 15:30 | 14.73809 | -57.61497 | 34850 ft | 521 kts | 47° |
| 2026-04-25 15:30 | 14.76242 | -57.58733 | 35119 ft | 519 kts | 47° |
| 2026-04-25 15:30 | 14.78676 | -57.55967 | 35347 ft | 519 kts | 47° |
| 2026-04-25 15:31 | 14.81109 | -57.53203 | 35573 ft | 519 kts | 47° |
| 2026-04-25 15:31 | 14.83544 | -57.50434 | 35727 ft | 520 kts | 47° |
| 2026-04-25 15:31 | 14.85951 | -57.47696 | 35925 ft | 520 kts | 47° |
| 2026-04-25 15:31 | 14.88387 | -57.44924 | 36168 ft | 519 kts | 47° |
| 2026-04-25 15:32 | 14.90816 | -57.42159 | 36447 ft | 517 kts | 47° |
| 2026-04-25 15:32 | 14.93238 | -57.39400 | 36682 ft | 517 kts | 47° |
| 2026-04-25 15:32 | 14.95657 | -57.36645 | 36922 ft | 515 kts | 47° |
| 2026-04-25 15:33 | 15.02882 | -57.28410 | 37003 ft | 515 kts | 47° |
| 2026-04-25 15:33 | 15.07685 | -57.22929 | 37019 ft | 513 kts | 47° |
| 2026-04-25 15:34 | 15.12497 | -57.17435 | 37023 ft | 514 kts | 47° |
| 2026-04-25 15:34 | 15.16497 | -57.12865 | 37021 ft | 515 kts | 47° |
| 2026-04-25 15:35 | 15.24514 | -57.03696 | 37019 ft | 516 kts | 47° |
| 2026-04-25 15:36 | 15.31725 | -56.95440 | 37016 ft | 516 kts | 47° |
| 2026-04-25 15:36 | 15.36518 | -56.89947 | 37022 ft | 516 kts | 47° |
| 2026-04-25 15:37 | 15.41335 | -56.84423 | 37019 ft | 516 kts | 47° |
| 2026-04-25 15:37 | 15.46142 | -56.78905 | 37022 ft | 514 kts | 47° |
| 2026-04-25 15:38 | 15.50936 | -56.73399 | 37016 ft | 513 kts | 47° |
| 2026-04-25 15:38 | 15.55690 | -56.67935 | 37017 ft | 512 kts | 47° |
| 2026-04-25 15:39 | 15.60469 | -56.62437 | 37016 ft | 513 kts | 47° |
| 2026-04-25 15:39 | 15.65260 | -56.56922 | 37031 ft | 514 kts | 47° |
| 2026-04-25 15:40 | 15.68432 | -56.53269 | 37028 ft | 514 kts | 47° |
| 2026-04-25 15:40 | 15.72402 | -56.48693 | 36696 ft | 509 kts | 47° |
| 2026-04-25 15:40 | 15.74771 | -56.45961 | 36163 ft | 507 kts | 47° |
| 2026-04-25 15:41 | 15.77129 | -56.43241 | 35634 ft | 505 kts | 47° |
| 2026-04-25 15:41 | 15.79472 | -56.40537 | 35121 ft | 503 kts | 47° |
| 2026-04-25 15:41 | 15.81806 | -56.37843 | 34642 ft | 501 kts | 47° |
| 2026-04-25 15:41 | 15.84104 | -56.35188 | 34157 ft | 499 kts | 47° |
| 2026-04-25 15:42 | 15.86424 | -56.32508 | 33660 ft | 496 kts | 47° |
| 2026-04-25 15:42 | 15.88727 | -56.29846 | 33230 ft | 492 kts | 47° |
| 2026-04-25 15:42 | 15.91006 | -56.27211 | 32845 ft | 486 kts | 47° |
| 2026-04-25 15:42 | 15.93261 | -56.24603 | 32450 ft | 482 kts | 47° |
| 2026-04-25 15:43 | 15.95495 | -56.22019 | 32035 ft | 478 kts | 47° |
| 2026-04-25 15:43 | 15.97677 | -56.19493 | 31621 ft | 474 kts | 47° |
| 2026-04-25 15:43 | 15.99876 | -56.16947 | 31208 ft | 470 kts | 47° |
| 2026-04-25 15:43 | 16.02058 | -56.14420 | 30806 ft | 467 kts | 47° |
| 2026-04-25 15:44 | 16.04222 | -56.11913 | 30418 ft | 463 kts | 47° |
| 2026-04-25 15:44 | 16.06368 | -56.09425 | 29999 ft | 460 kts | 47° |
| 2026-04-25 15:44 | 16.08498 | -56.06956 | 29486 ft | 458 kts | 47° |
| 2026-04-25 15:44 | 16.10593 | -56.04526 | 29112 ft | 455 kts | 47° |
| 2026-04-25 15:45 | 16.14842 | -55.99596 | 29032 ft | 455 kts | 47° |
| 2026-04-25 15:45 | 16.17670 | -55.96313 | 29026 ft | 455 kts | 47° |
| 2026-04-25 15:46 | 16.23271 | -55.89805 | 29032 ft | 455 kts | 47° |
| 2026-04-25 15:46 | 16.27500 | -55.84887 | 29033 ft | 455 kts | 47° |
| 2026-04-25 15:47 | 16.31781 | -55.79907 | 29049 ft | 472 kts | 47° |
| 2026-04-25 15:47 | 16.34000 | -55.77323 | 29050 ft | 483 kts | 47° |
| 2026-04-25 15:47 | 16.36271 | -55.74678 | 29061 ft | 494 kts | 47° |
| 2026-04-25 15:48 | 16.40925 | -55.69251 | 29050 ft | 514 kts | 47° |
| 2026-04-25 15:48 | 16.45761 | -55.63609 | 29041 ft | 524 kts | 47° |
| 2026-04-25 15:49 | 16.50588 | -55.57973 | 29027 ft | 524 kts | 47° |
| 2026-04-25 15:49 | 16.55445 | -55.52299 | 29033 ft | 523 kts | 47° |
| 2026-04-25 15:50 | 16.60299 | -55.46623 | 29035 ft | 524 kts | 47° |
| 2026-04-25 15:50 | 16.65163 | -55.40932 | 29034 ft | 525 kts | 47° |
| 2026-04-25 15:51 | 16.68387 | -55.37156 | 29036 ft | 525 kts | 47° |
| 2026-04-25 15:51 | 16.74852 | -55.29578 | 29035 ft | 525 kts | 47° |
| 2026-04-25 15:52 | 16.79719 | -55.23867 | 29035 ft | 526 kts | 47° |
| 2026-04-25 15:52 | 16.84557 | -55.18186 | 29037 ft | 526 kts | 47° |
| 2026-04-25 15:53 | 16.89421 | -55.12466 | 29036 ft | 526 kts | 47° |
| 2026-04-25 15:53 | 16.94282 | -55.06744 | 29035 ft | 526 kts | 47° |
| 2026-04-25 15:54 | 16.99153 | -55.01010 | 29038 ft | 526 kts | 47° |
| 2026-04-25 15:54 | 17.04282 | -54.95646 | 29031 ft | 525 kts | 41° |
| 2026-04-25 15:55 | 17.09701 | -54.90509 | 29042 ft | 526 kts | 40° |
| 2026-04-25 15:55 | 17.15134 | -54.85360 | 29041 ft | 526 kts | 41° |
| 2026-04-25 15:56 | 17.20494 | -54.80198 | 29043 ft | 526 kts | 41° |
| 2026-04-25 15:56 | 17.25867 | -54.74980 | 29050 ft | 527 kts | 41° |
| 2026-04-25 15:57 | 17.31247 | -54.69746 | 29043 ft | 527 kts | 41° |
| 2026-04-25 15:57 | 17.36595 | -54.64544 | 29042 ft | 527 kts | 41° |
| 2026-04-25 15:58 | 17.41973 | -54.59311 | 29044 ft | 527 kts | 41° |
| 2026-04-25 15:58 | 17.47356 | -54.54070 | 29043 ft | 527 kts | 41° |
| 2026-04-25 15:59 | 17.52733 | -54.48830 | 29047 ft | 528 kts | 41° |
| 2026-04-25 15:59 | 17.58077 | -54.43618 | 29046 ft | 528 kts | 41° |
| 2026-04-25 16:00 | 17.61676 | -54.40106 | 29046 ft | 528 kts | 41° |
| 2026-04-25 16:00 | 17.67931 | -54.33995 | 29051 ft | 528 kts | 41° |
| 2026-04-25 16:01 | 17.74197 | -54.27868 | 29050 ft | 528 kts | 41° |
| 2026-04-25 16:01 | 17.78700 | -54.23461 | 29049 ft | 528 kts | 41° |
| 2026-04-25 16:02 | 17.84041 | -54.18231 | 29048 ft | 527 kts | 41° |
| 2026-04-25 16:02 | 17.89406 | -54.12971 | 29048 ft | 527 kts | 41° |
| 2026-04-25 16:03 | 17.94739 | -54.07739 | 29060 ft | 527 kts | 41° |
| 2026-04-25 16:03 | 18.00112 | -54.02463 | 29048 ft | 528 kts | 41° |
| 2026-04-25 16:04 | 18.05453 | -53.97213 | 29051 ft | 528 kts | 41° |
| 2026-04-25 16:04 | 18.10837 | -53.91918 | 29049 ft | 528 kts | 41° |
| 2026-04-25 16:05 | 18.16207 | -53.86630 | 29049 ft | 528 kts | 41° |
| 2026-04-25 16:06 | 18.24226 | -53.78726 | 29046 ft | 529 kts | 41° |
| 2026-04-25 16:06 | 18.29604 | -53.73420 | 29044 ft | 529 kts | 41° |
| 2026-04-25 16:07 | 18.34983 | -53.68107 | 29047 ft | 529 kts | 41° |
| 2026-04-25 16:07 | 18.40327 | -53.62824 | 29045 ft | 529 kts | 41° |
| 2026-04-25 16:08 | 18.45708 | -53.57511 | 29051 ft | 529 kts | 40° |
| 2026-04-25 16:08 | 18.51092 | -53.52196 | 29055 ft | 530 kts | 40° |
| 2026-04-25 16:09 | 18.56472 | -53.46864 | 29054 ft | 530 kts | 40° |
| 2026-04-25 16:09 | 18.61826 | -53.41549 | 29054 ft | 530 kts | 40° |
| 2026-04-25 16:10 | 18.67219 | -53.36193 | 29053 ft | 531 kts | 40° |
| 2026-04-25 16:10 | 18.72571 | -53.30873 | 29052 ft | 532 kts | 40° |
| 2026-04-25 16:11 | 18.77974 | -53.25498 | 29052 ft | 532 kts | 40° |
| 2026-04-25 16:11 | 18.83331 | -53.20164 | 29051 ft | 531 kts | 40° |
| 2026-04-25 16:12 | 18.88717 | -53.14795 | 29056 ft | 531 kts | 40° |
| 2026-04-25 16:12 | 18.94069 | -53.09457 | 29056 ft | 531 kts | 40° |
| 2026-04-25 16:13 | 18.99456 | -53.04078 | 29055 ft | 532 kts | 40° |
| 2026-04-25 16:13 | 19.04836 | -52.98701 | 29056 ft | 532 kts | 40° |
| 2026-04-25 16:14 | 19.10219 | -52.93315 | 29056 ft | 532 kts | 40° |
| 2026-04-25 16:14 | 19.15574 | -52.87954 | 29057 ft | 533 kts | 40° |
| 2026-04-25 16:15 | 19.20969 | -52.82547 | 29058 ft | 533 kts | 40° |
| 2026-04-25 16:15 | 19.26359 | -52.77140 | 29057 ft | 533 kts | 40° |
| 2026-04-25 16:16 | 19.31709 | -52.71767 | 29069 ft | 533 kts | 40° |
| 2026-04-25 16:16 | 19.37101 | -52.66348 | 29057 ft | 533 kts | 40° |
| 2026-04-25 16:17 | 19.42493 | -52.60923 | 29057 ft | 533 kts | 40° |
| 2026-04-25 16:17 | 19.47847 | -52.55531 | 29057 ft | 533 kts | 40° |
| 2026-04-25 16:18 | 19.53234 | -52.50100 | 29064 ft | 533 kts | 40° |
| 2026-04-25 16:18 | 19.58622 | -52.44663 | 29057 ft | 534 kts | 40° |
| 2026-04-25 16:19 | 19.63969 | -52.39264 | 29057 ft | 534 kts | 40° |
| 2026-04-25 16:19 | 19.69356 | -52.33817 | 29057 ft | 534 kts | 40° |
| 2026-04-25 16:20 | 19.77210 | -52.25868 | 29061 ft | 534 kts | 40° |
| 2026-04-25 16:21 | 19.85290 | -52.17678 | 29058 ft | 534 kts | 40° |
| 2026-04-25 16:21 | 19.90638 | -52.12249 | 29055 ft | 534 kts | 40° |
| 2026-04-25 16:22 | 19.96008 | -52.06794 | 29062 ft | 534 kts | 40° |
| 2026-04-25 16:22 | 20.01387 | -52.01324 | 29059 ft | 534 kts | 40° |
| 2026-04-25 16:23 | 20.06719 | -51.95896 | 29060 ft | 533 kts | 40° |
| 2026-04-25 16:23 | 20.12089 | -51.90424 | 29059 ft | 533 kts | 40° |
| 2026-04-25 16:24 | 20.17457 | -51.84949 | 29066 ft | 533 kts | 40° |
| 2026-04-25 16:24 | 20.22786 | -51.79508 | 29054 ft | 534 kts | 40° |
| 2026-04-25 16:25 | 20.28156 | -51.74019 | 29055 ft | 534 kts | 40° |
| 2026-04-25 16:25 | 20.33519 | -51.68532 | 29061 ft | 534 kts | 40° |
| 2026-04-25 16:26 | 20.38851 | -51.63072 | 29068 ft | 534 kts | 40° |
| 2026-04-25 16:26 | 20.44221 | -51.57566 | 29060 ft | 535 kts | 40° |
| 2026-04-25 16:27 | 20.49590 | -51.52056 | 29057 ft | 534 kts | 40° |
| 2026-04-25 16:27 | 20.54918 | -51.46582 | 29057 ft | 534 kts | 40° |
| 2026-04-25 16:28 | 20.60280 | -51.41068 | 29053 ft | 534 kts | 40° |
| 2026-04-25 16:28 | 20.65609 | -51.35582 | 29071 ft | 535 kts | 40° |
| 2026-04-25 16:29 | 20.70974 | -51.30052 | 29067 ft | 534 kts | 40° |
| 2026-04-25 16:29 | 20.76330 | -51.24525 | 29062 ft | 534 kts | 40° |
| 2026-04-25 16:30 | 20.81656 | -51.19023 | 29053 ft | 535 kts | 40° |
| 2026-04-25 16:30 | 20.87019 | -51.13476 | 29061 ft | 535 kts | 40° |
| 2026-04-25 16:31 | 20.92341 | -51.07962 | 29057 ft | 536 kts | 40° |
| 2026-04-25 16:31 | 20.97703 | -51.02397 | 29059 ft | 536 kts | 40° |
| 2026-04-25 16:32 | 21.03109 | -50.96878 | 29067 ft | 535 kts | 38° |
| 2026-04-25 16:32 | 21.08643 | -50.91609 | 29057 ft | 535 kts | 37° |
| 2026-04-25 16:33 | 21.14248 | -50.86328 | 29058 ft | 535 kts | 37° |
| 2026-04-25 16:33 | 21.19820 | -50.81007 | 29068 ft | 536 kts | 37° |
| 2026-04-25 16:34 | 21.25340 | -50.75687 | 29062 ft | 536 kts | 38° |
| 2026-04-25 16:34 | 21.30889 | -50.70324 | 29058 ft | 536 kts | 38° |
| 2026-04-25 16:35 | 21.36444 | -50.64952 | 29058 ft | 536 kts | 38° |
| 2026-04-25 16:35 | 21.41990 | -50.59587 | 29065 ft | 536 kts | 37° |
| 2026-04-25 16:36 | 21.47510 | -50.54245 | 29062 ft | 537 kts | 37° |
| 2026-04-25 16:36 | 21.53066 | -50.48861 | 29060 ft | 537 kts | 37° |
| 2026-04-25 16:37 | 21.58609 | -50.43484 | 29057 ft | 537 kts | 37° |
| 2026-04-25 16:37 | 21.64129 | -50.38122 | 29062 ft | 537 kts | 37° |
| 2026-04-25 16:38 | 21.69690 | -50.32716 | 29055 ft | 538 kts | 37° |
| 2026-04-25 16:38 | 21.75212 | -50.27340 | 29054 ft | 538 kts | 37° |
| 2026-04-25 16:39 | 21.80770 | -50.21925 | 29062 ft | 538 kts | 37° |
| 2026-04-25 16:39 | 21.86327 | -50.16504 | 29065 ft | 538 kts | 37° |
| 2026-04-25 16:40 | 21.91849 | -50.11111 | 29054 ft | 538 kts | 37° |
| 2026-04-25 16:40 | 21.97403 | -50.05682 | 29064 ft | 538 kts | 37° |
| 2026-04-25 16:41 | 22.02948 | -50.00256 | 29054 ft | 538 kts | 37° |
| 2026-04-25 16:41 | 22.11228 | -49.92141 | 29063 ft | 537 kts | 37° |
| 2026-04-25 16:42 | 22.16761 | -49.86710 | 29057 ft | 537 kts | 37° |
| 2026-04-25 16:42 | 22.22267 | -49.81302 | 29061 ft | 538 kts | 37° |
| 2026-04-25 16:43 | 22.27828 | -49.75834 | 29063 ft | 539 kts | 37° |
| 2026-04-25 16:43 | 22.33384 | -49.70362 | 29058 ft | 539 kts | 37° |
| 2026-04-25 16:44 | 22.38895 | -49.64928 | 29067 ft | 539 kts | 37° |
| 2026-04-25 16:44 | 22.44444 | -49.59452 | 29057 ft | 540 kts | 37° |
| 2026-04-25 16:45 | 22.49967 | -49.53996 | 29055 ft | 540 kts | 37° |
| 2026-04-25 16:45 | 22.54584 | -49.49429 | 29061 ft | 540 kts | 37° |
| 2026-04-25 16:46 | 22.60138 | -49.43931 | 29075 ft | 540 kts | 37° |
| 2026-04-25 16:46 | 22.64769 | -49.39341 | 29058 ft | 541 kts | 37° |
| 2026-04-25 16:47 | 22.71236 | -49.32924 | 29062 ft | 541 kts | 37° |
| 2026-04-25 16:47 | 22.76759 | -49.27436 | 29072 ft | 541 kts | 37° |
| 2026-04-25 16:48 | 22.82321 | -49.21905 | 29048 ft | 542 kts | 37° |
| 2026-04-25 16:48 | 22.87882 | -49.16367 | 29061 ft | 542 kts | 37° |
| 2026-04-25 16:49 | 22.93399 | -49.10866 | 29069 ft | 542 kts | 37° |
| 2026-04-25 16:49 | 22.98950 | -49.05325 | 29052 ft | 541 kts | 37° |
| 2026-04-25 16:50 | 23.04502 | -48.99777 | 29057 ft | 541 kts | 37° |
| 2026-04-25 16:50 | 23.10008 | -48.94270 | 29054 ft | 541 kts | 37° |
| 2026-04-25 16:51 | 23.15552 | -48.88716 | 29060 ft | 541 kts | 37° |
| 2026-04-25 16:51 | 23.20154 | -48.84101 | 29053 ft | 540 kts | 37° |
| 2026-04-25 16:52 | 23.26579 | -48.77652 | 29061 ft | 540 kts | 37° |
| 2026-04-25 16:52 | 23.32105 | -48.72097 | 29073 ft | 539 kts | 37° |
| 2026-04-25 16:53 | 23.40349 | -48.63799 | 29049 ft | 539 kts | 37° |
| 2026-04-25 16:54 | 23.45855 | -48.58248 | 29055 ft | 539 kts | 37° |
| 2026-04-25 16:54 | 23.51364 | -48.52687 | 29071 ft | 539 kts | 37° |
| 2026-04-25 16:55 | 23.56836 | -48.47158 | 29057 ft | 539 kts | 37° |
| 2026-04-25 16:55 | 23.62342 | -48.41587 | 29049 ft | 538 kts | 37° |
| 2026-04-25 16:56 | 23.67806 | -48.36052 | 29079 ft | 538 kts | 37° |
| 2026-04-25 16:56 | 23.73301 | -48.30480 | 29064 ft | 539 kts | 37° |
| 2026-04-25 16:57 | 23.78788 | -48.24907 | 29056 ft | 539 kts | 37° |
| 2026-04-25 16:57 | 23.84247 | -48.19357 | 29054 ft | 538 kts | 37° |
| 2026-04-25 16:58 | 23.89724 | -48.13783 | 29058 ft | 538 kts | 37° |
| 2026-04-25 16:58 | 23.95210 | -48.08192 | 29058 ft | 538 kts | 37° |
| 2026-04-25 16:59 | 24.00695 | -48.02595 | 29057 ft | 538 kts | 37° |
| 2026-04-25 16:59 | 24.06136 | -47.97037 | 29062 ft | 538 kts | 37° |
| 2026-04-25 17:00 | 24.11610 | -47.91437 | 29053 ft | 538 kts | 37° |
| 2026-04-25 17:00 | 24.17092 | -47.85822 | 29064 ft | 538 kts | 37° |
| 2026-04-25 17:01 | 24.22530 | -47.80246 | 29069 ft | 538 kts | 37° |
| 2026-04-25 17:01 | 24.28004 | -47.74626 | 29058 ft | 538 kts | 38° |
| 2026-04-25 17:02 | 24.33429 | -47.69048 | 29058 ft | 537 kts | 38° |
| 2026-04-25 17:02 | 24.38894 | -47.63424 | 29080 ft | 537 kts | 38° |
| 2026-04-25 17:03 | 24.44362 | -47.57789 | 29058 ft | 538 kts | 38° |
| 2026-04-25 17:03 | 24.49809 | -47.52168 | 29061 ft | 537 kts | 38° |
| 2026-04-25 17:04 | 24.55224 | -47.46572 | 29063 ft | 537 kts | 38° |
| 2026-04-25 17:04 | 24.60640 | -47.40970 | 29065 ft | 537 kts | 38° |
| 2026-04-25 17:05 | 24.66086 | -47.35329 | 29056 ft | 537 kts | 38° |
| 2026-04-25 17:05 | 24.74254 | -47.26853 | 29078 ft | 537 kts | 38° |
| 2026-04-25 17:06 | 24.79654 | -47.21241 | 29065 ft | 537 kts | 38° |
| 2026-04-25 17:06 | 24.85090 | -47.15581 | 29060 ft | 537 kts | 38° |
| 2026-04-25 17:07 | 24.90525 | -47.09911 | 29080 ft | 537 kts | 38° |
| 2026-04-25 17:07 | 24.95922 | -47.04275 | 29066 ft | 538 kts | 38° |
| 2026-04-25 17:08 | 25.01147 | -46.98309 | 29060 ft | 544 kts | 46° |
| 2026-04-25 17:08 | 25.05553 | -46.91471 | 29088 ft | 547 kts | 51° |
| 2026-04-25 17:09 | 25.09831 | -46.84572 | 29061 ft | 548 kts | 51° |
| 2026-04-25 17:09 | 25.14164 | -46.77638 | 29063 ft | 547 kts | 51° |
| 2026-04-25 17:10 | 25.18522 | -46.70712 | 29062 ft | 547 kts | 51° |
| 2026-04-25 17:10 | 25.22844 | -46.63847 | 29071 ft | 547 kts | 51° |
| 2026-04-25 17:11 | 25.27193 | -46.56926 | 29059 ft | 547 kts | 51° |
| 2026-04-25 17:11 | 25.31501 | -46.50056 | 29058 ft | 546 kts | 51° |
| 2026-04-25 17:12 | 25.35833 | -46.43136 | 29080 ft | 546 kts | 51° |
| 2026-04-25 17:12 | 25.40154 | -46.36223 | 29057 ft | 545 kts | 51° |
| 2026-04-25 17:13 | 25.43016 | -46.31638 | 29062 ft | 545 kts | 51° |
| 2026-04-25 17:13 | 25.48757 | -46.22431 | 29069 ft | 545 kts | 51° |
| 2026-04-25 17:14 | 25.53034 | -46.15559 | 29064 ft | 545 kts | 51° |
| 2026-04-25 17:14 | 25.57338 | -46.08633 | 29066 ft | 545 kts | 51° |
| 2026-04-25 17:15 | 25.61640 | -46.01702 | 29068 ft | 545 kts | 51° |
| 2026-04-25 17:15 | 25.65905 | -45.94818 | 29071 ft | 545 kts | 51° |
| 2026-04-25 17:16 | 25.70199 | -45.87877 | 29069 ft | 544 kts | 51° |
| 2026-04-25 17:16 | 25.74484 | -45.80941 | 29066 ft | 544 kts | 51° |
| 2026-04-25 17:17 | 25.78736 | -45.74050 | 29078 ft | 544 kts | 51° |
| 2026-04-25 17:17 | 25.83013 | -45.67105 | 29080 ft | 543 kts | 51° |
| 2026-04-25 17:18 | 25.87286 | -45.60159 | 29079 ft | 543 kts | 51° |
| 2026-04-25 17:18 | 25.91520 | -45.53263 | 29087 ft | 543 kts | 51° |
| 2026-04-25 17:19 | 25.95784 | -45.46310 | 29071 ft | 543 kts | 51° |
| 2026-04-25 17:19 | 26.00016 | -45.39400 | 29066 ft | 543 kts | 51° |
| 2026-04-25 17:20 | 26.04276 | -45.32432 | 29077 ft | 543 kts | 51° |
| 2026-04-25 17:20 | 26.08498 | -45.25516 | 29072 ft | 543 kts | 51° |
| 2026-04-25 17:21 | 26.12744 | -45.18550 | 29065 ft | 542 kts | 51° |
| 2026-04-25 17:21 | 26.16980 | -45.11588 | 29097 ft | 542 kts | 51° |
| 2026-04-25 17:22 | 26.19783 | -45.06977 | 29089 ft | 542 kts | 51° |
| 2026-04-25 17:22 | 26.25417 | -44.97695 | 29077 ft | 543 kts | 51° |
| 2026-04-25 17:23 | 26.29651 | -44.90707 | 29075 ft | 543 kts | 51° |
| 2026-04-25 17:23 | 26.33848 | -44.83770 | 29074 ft | 543 kts | 51° |
| 2026-04-25 17:24 | 26.38068 | -44.76782 | 29078 ft | 542 kts | 51° |
| 2026-04-25 17:24 | 26.42292 | -44.69778 | 29074 ft | 542 kts | 51° |
| 2026-04-25 17:25 | 26.46472 | -44.62836 | 29080 ft | 542 kts | 51° |
| 2026-04-25 17:25 | 26.50675 | -44.55846 | 29083 ft | 541 kts | 51° |
| 2026-04-25 17:26 | 26.54878 | -44.48844 | 29083 ft | 541 kts | 51° |
| 2026-04-25 17:26 | 26.59046 | -44.41890 | 29086 ft | 541 kts | 51° |
| 2026-04-25 17:27 | 26.63227 | -44.34902 | 29081 ft | 540 kts | 51° |
| 2026-04-25 17:27 | 26.66025 | -44.30222 | 29080 ft | 539 kts | 51° |
| 2026-04-25 17:28 | 26.71547 | -44.20969 | 29093 ft | 539 kts | 51° |
| 2026-04-25 17:28 | 26.75716 | -44.13971 | 29087 ft | 539 kts | 51° |
| 2026-04-25 17:29 | 26.79872 | -44.06981 | 29080 ft | 539 kts | 51° |
| 2026-04-25 17:29 | 26.84025 | -43.99989 | 29090 ft | 538 kts | 51° |
| 2026-04-25 17:30 | 26.88150 | -43.93030 | 29085 ft | 538 kts | 51° |
| 2026-04-25 17:30 | 26.92290 | -43.86037 | 29088 ft | 538 kts | 51° |
| 2026-04-25 17:31 | 26.96408 | -43.79071 | 29096 ft | 538 kts | 51° |
| 2026-04-25 17:31 | 27.00544 | -43.72062 | 29089 ft | 538 kts | 51° |
| 2026-04-25 17:32 | 27.04662 | -43.65072 | 29086 ft | 537 kts | 51° |
| 2026-04-25 17:32 | 27.08790 | -43.58054 | 29098 ft | 537 kts | 51° |
| 2026-04-25 17:33 | 27.12222 | -43.52213 | 29093 ft | 538 kts | 51° |
| 2026-04-25 17:33 | 27.16311 | -43.45240 | 29103 ft | 537 kts | 51° |
| 2026-04-25 17:34 | 27.20426 | -43.38214 | 29090 ft | 537 kts | 51° |
| 2026-04-25 17:34 | 27.24504 | -43.31238 | 29089 ft | 536 kts | 51° |
| 2026-04-25 17:35 | 27.28599 | -43.24224 | 29089 ft | 536 kts | 51° |
| 2026-04-25 17:35 | 27.32668 | -43.17243 | 29090 ft | 536 kts | 51° |
| 2026-04-25 17:36 | 27.36754 | -43.10222 | 29089 ft | 536 kts | 52° |
| 2026-04-25 17:36 | 27.40842 | -43.03185 | 29114 ft | 536 kts | 52° |
| 2026-04-25 17:37 | 27.44922 | -42.96152 | 29088 ft | 536 kts | 51° |
| 2026-04-25 17:37 | 27.48971 | -42.89159 | 29093 ft | 535 kts | 52° |
| 2026-04-25 17:38 | 27.52352 | -42.83312 | 29095 ft | 535 kts | 52° |
| 2026-04-25 17:38 | 27.57071 | -42.75138 | 29097 ft | 534 kts | 51° |
| 2026-04-25 17:39 | 27.61125 | -42.68103 | 29096 ft | 534 kts | 52° |
| 2026-04-25 17:39 | 27.65168 | -42.61075 | 29104 ft | 533 kts | 51° |
| 2026-04-25 17:40 | 27.69183 | -42.54086 | 29097 ft | 533 kts | 51° |
| 2026-04-25 17:40 | 27.73214 | -42.47057 | 29098 ft | 533 kts | 51° |
| 2026-04-25 17:41 | 27.77243 | -42.40018 | 29109 ft | 532 kts | 51° |
| 2026-04-25 17:41 | 27.81243 | -42.33016 | 29111 ft | 532 kts | 51° |
| 2026-04-25 17:42 | 27.85256 | -42.25984 | 29100 ft | 532 kts | 51° |
| 2026-04-25 17:42 | 27.89265 | -42.18942 | 29108 ft | 531 kts | 51° |
| 2026-04-25 17:43 | 27.93237 | -42.11947 | 29096 ft | 531 kts | 51° |
| 2026-04-25 17:43 | 27.97226 | -42.04914 | 29109 ft | 530 kts | 51° |
| 2026-04-25 17:44 | 28.01457 | -41.98193 | 29097 ft | 523 kts | 42° |
| 2026-04-25 17:44 | 28.06455 | -41.92303 | 29108 ft | 517 kts | 38° |
| 2026-04-25 17:45 | 28.10663 | -41.87461 | 29098 ft | 517 kts | 38° |
| 2026-04-25 17:45 | 28.16532 | -41.80610 | 29098 ft | 518 kts | 39° |
| 2026-04-25 17:46 | 28.21504 | -41.74741 | 29107 ft | 518 kts | 39° |
| 2026-04-25 17:46 | 28.26491 | -41.68835 | 29101 ft | 518 kts | 39° |
| 2026-04-25 17:47 | 28.31485 | -41.62915 | 29107 ft | 518 kts | 39° |
| 2026-04-25 17:47 | 28.36444 | -41.57033 | 29104 ft | 518 kts | 39° |
| 2026-04-25 17:48 | 28.43924 | -41.48145 | 29107 ft | 517 kts | 39° |
| 2026-04-25 17:49 | 28.48889 | -41.42236 | 29113 ft | 517 kts | 39° |
| 2026-04-25 17:49 | 28.53832 | -41.36343 | 29111 ft | 517 kts | 39° |
| 2026-04-25 17:50 | 28.58799 | -41.30414 | 29113 ft | 516 kts | 39° |
| 2026-04-25 17:50 | 28.63727 | -41.24521 | 29111 ft | 516 kts | 39° |
| 2026-04-25 17:51 | 28.68683 | -41.18587 | 29111 ft | 516 kts | 39° |
| 2026-04-25 17:51 | 28.73608 | -41.12681 | 29115 ft | 516 kts | 39° |
| 2026-04-25 17:52 | 28.78547 | -41.06751 | 29111 ft | 516 kts | 39° |
| 2026-04-25 17:52 | 28.83490 | -41.00807 | 29116 ft | 516 kts | 39° |
| 2026-04-25 17:53 | 28.88431 | -40.94856 | 29114 ft | 516 kts | 39° |
| 2026-04-25 17:53 | 28.93375 | -40.88892 | 29117 ft | 516 kts | 39° |
| 2026-04-25 17:54 | 28.98287 | -40.82959 | 29116 ft | 516 kts | 39° |
| 2026-04-25 17:54 | 29.03221 | -40.76990 | 29122 ft | 516 kts | 39° |
| 2026-04-25 17:55 | 29.08166 | -40.70999 | 29127 ft | 517 kts | 39° |
| 2026-04-25 17:55 | 29.13073 | -40.65044 | 29125 ft | 517 kts | 39° |
| 2026-04-25 17:56 | 29.18003 | -40.59052 | 29115 ft | 516 kts | 39° |
| 2026-04-25 17:56 | 29.22917 | -40.53071 | 29118 ft | 516 kts | 39° |
| 2026-04-25 17:57 | 29.27839 | -40.47072 | 29129 ft | 516 kts | 39° |
| 2026-04-25 17:57 | 29.32731 | -40.41101 | 29116 ft | 516 kts | 39° |
| 2026-04-25 17:58 | 29.37654 | -40.35082 | 29123 ft | 516 kts | 39° |
| 2026-04-25 17:58 | 29.42530 | -40.29112 | 29120 ft | 515 kts | 39° |
| 2026-04-25 17:59 | 29.47436 | -40.23098 | 29134 ft | 516 kts | 40° |
| 2026-04-25 17:59 | 29.52339 | -40.17077 | 29129 ft | 515 kts | 40° |
| 2026-04-25 18:00 | 29.57241 | -40.11046 | 29130 ft | 515 kts | 40° |
| 2026-04-25 18:00 | 29.62102 | -40.05057 | 29125 ft | 515 kts | 40° |
| 2026-04-25 18:01 | 29.67006 | -39.99010 | 29120 ft | 515 kts | 40° |
| 2026-04-25 18:01 | 29.71889 | -39.92975 | 29128 ft | 514 kts | 40° |
| 2026-04-25 18:02 | 29.76744 | -39.86966 | 29122 ft | 514 kts | 40° |
| 2026-04-25 18:02 | 29.81619 | -39.80924 | 29122 ft | 514 kts | 40° |
| 2026-04-25 18:03 | 29.86501 | -39.74871 | 29146 ft | 524 kts | 41° |
| 2026-04-25 18:03 | 29.91503 | -39.68656 | 29133 ft | 527 kts | 41° |
| 2026-04-25 18:04 | 29.96477 | -39.62453 | 29127 ft | 525 kts | 41° |
| 2026-04-25 18:04 | 30.01441 | -39.56258 | 29140 ft | 525 kts | 41° |
| 2026-04-25 18:04 | 30.03902 | -39.53187 | 29250 ft | 529 kts | 41° |
| 2026-04-25 18:05 | 30.06403 | -39.50061 | 29605 ft | 528 kts | 41° |
| 2026-04-25 18:05 | 30.08896 | -39.46942 | 30074 ft | 526 kts | 41° |
| 2026-04-25 18:05 | 30.11375 | -39.43836 | 30487 ft | 524 kts | 40° |
| 2026-04-25 18:05 | 30.13845 | -39.40741 | 30858 ft | 522 kts | 40° |
| 2026-04-25 18:06 | 30.16276 | -39.37693 | 31188 ft | 521 kts | 40° |
| 2026-04-25 18:06 | 30.18739 | -39.34604 | 31511 ft | 521 kts | 39° |
| 2026-04-25 18:06 | 30.21197 | -39.31519 | 31866 ft | 520 kts | 39° |
| 2026-04-25 18:06 | 30.23650 | -39.28438 | 32198 ft | 519 kts | 39° |
| 2026-04-25 18:07 | 30.26102 | -39.25356 | 32506 ft | 520 kts | 39° |
| 2026-04-25 18:07 | 30.28558 | -39.22266 | 32750 ft | 521 kts | 39° |
| 2026-04-25 18:07 | 30.30984 | -39.19212 | 33026 ft | 521 kts | 38° |
| 2026-04-25 18:07 | 30.33434 | -39.16123 | 33363 ft | 520 kts | 38° |
| 2026-04-25 18:08 | 30.35886 | -39.13029 | 33687 ft | 520 kts | 38° |
| 2026-04-25 18:08 | 30.38334 | -39.09936 | 34047 ft | 519 kts | 38° |
| 2026-04-25 18:08 | 30.40778 | -39.06847 | 34353 ft | 519 kts | 37° |
| 2026-04-25 18:08 | 30.43188 | -39.03799 | 34629 ft | 519 kts | 37° |
| 2026-04-25 18:09 | 30.45636 | -39.00701 | 34887 ft | 519 kts | 37° |
| 2026-04-25 18:09 | 30.48073 | -38.97616 | 35165 ft | 519 kts | 37° |
| 2026-04-25 18:09 | 30.50513 | -38.94523 | 35442 ft | 518 kts | 37° |
| 2026-04-25 18:10 | 30.55353 | -38.88380 | 35990 ft | 518 kts | 37° |
| 2026-04-25 18:10 | 30.57788 | -38.85286 | 36259 ft | 518 kts | 37° |
| 2026-04-25 18:10 | 30.60219 | -38.82195 | 36512 ft | 518 kts | 37° |
| 2026-04-25 18:10 | 30.62651 | -38.79100 | 36777 ft | 518 kts | 37° |
| 2026-04-25 18:11 | 30.65076 | -38.76011 | 37042 ft | 517 kts | 37° |
| 2026-04-25 18:11 | 30.67499 | -38.72922 | 37321 ft | 517 kts | 37° |
| 2026-04-25 18:11 | 30.69920 | -38.69832 | 37574 ft | 517 kts | 37° |
| 2026-04-25 18:11 | 30.72313 | -38.66777 | 37818 ft | 517 kts | 37° |
| 2026-04-25 18:12 | 30.74732 | -38.63686 | 38172 ft | 514 kts | 38° |
| 2026-04-25 18:12 | 30.77139 | -38.60606 | 38463 ft | 513 kts | 38° |
| 2026-04-25 18:12 | 30.79544 | -38.57527 | 38667 ft | 513 kts | 37° |
| 2026-04-25 18:12 | 30.81959 | -38.54437 | 38852 ft | 514 kts | 37° |
| 2026-04-25 18:13 | 30.84362 | -38.51358 | 39006 ft | 514 kts | 38° |
| 2026-04-25 18:13 | 30.89155 | -38.45211 | 39108 ft | 516 kts | 38° |
| 2026-04-25 18:14 | 30.96381 | -38.35907 | 39128 ft | 512 kts | 38° |
| 2026-04-25 18:14 | 31.01126 | -38.29788 | 39128 ft | 509 kts | 38° |
| 2026-04-25 18:15 | 31.05878 | -38.23656 | 39154 ft | 508 kts | 38° |
| 2026-04-25 18:15 | 31.10623 | -38.17525 | 39156 ft | 509 kts | 38° |
| 2026-04-25 18:16 | 31.15343 | -38.11416 | 39137 ft | 509 kts | 39° |
| 2026-04-25 18:17 | 31.22458 | -38.02182 | 39139 ft | 509 kts | 39° |
| 2026-04-25 18:17 | 31.27165 | -37.96060 | 39139 ft | 509 kts | 39° |
| 2026-04-25 18:18 | 31.31907 | -37.89885 | 39143 ft | 509 kts | 39° |
| 2026-04-25 18:18 | 31.36614 | -37.83744 | 39137 ft | 509 kts | 39° |
| 2026-04-25 18:19 | 31.40578 | -37.78564 | 39135 ft | 509 kts | 39° |
| 2026-04-25 18:19 | 31.45266 | -37.72430 | 39135 ft | 509 kts | 39° |
| 2026-04-25 18:20 | 31.49992 | -37.66236 | 39132 ft | 508 kts | 40° |
| 2026-04-25 18:20 | 31.54700 | -37.60054 | 39134 ft | 507 kts | 40° |
| 2026-04-25 18:21 | 31.59369 | -37.53914 | 39132 ft | 506 kts | 40° |
| 2026-04-25 18:21 | 31.64059 | -37.47737 | 39136 ft | 505 kts | 40° |
| 2026-04-25 18:22 | 31.68710 | -37.41600 | 39141 ft | 505 kts | 41° |
| 2026-04-25 18:22 | 31.73388 | -37.35418 | 39137 ft | 505 kts | 41° |
| 2026-04-25 18:23 | 31.78062 | -37.29229 | 39140 ft | 505 kts | 41° |
| 2026-04-25 18:23 | 31.82707 | -37.23068 | 39141 ft | 505 kts | 41° |
| 2026-04-25 18:24 | 31.87364 | -37.16879 | 39153 ft | 505 kts | 41° |
| 2026-04-25 18:24 | 31.92002 | -37.10700 | 39138 ft | 505 kts | 42° |
| 2026-04-25 18:25 | 31.96660 | -37.04480 | 39128 ft | 505 kts | 41° |
| 2026-04-25 18:25 | 32.01243 | -36.98186 | 39139 ft | 508 kts | 46° |
| 2026-04-25 18:26 | 32.05499 | -36.91597 | 39139 ft | 508 kts | 47° |
| 2026-04-25 18:26 | 32.09745 | -36.84901 | 39136 ft | 508 kts | 47° |
| 2026-04-25 18:27 | 32.13981 | -36.78225 | 39133 ft | 507 kts | 47° |
| 2026-04-25 18:27 | 32.18195 | -36.71603 | 39144 ft | 507 kts | 47° |
| 2026-04-25 18:28 | 32.22439 | -36.64931 | 39135 ft | 507 kts | 47° |
| 2026-04-25 18:28 | 32.26677 | -36.58258 | 39134 ft | 506 kts | 47° |
| 2026-04-25 18:29 | 32.32989 | -36.48295 | 39141 ft | 506 kts | 47° |
| 2026-04-25 18:30 | 32.41403 | -36.34972 | 39133 ft | 506 kts | 47° |
| 2026-04-25 18:30 | 32.45610 | -36.28291 | 39136 ft | 505 kts | 47° |
| 2026-04-25 18:31 | 32.49819 | -36.21598 | 39127 ft | 505 kts | 47° |
| 2026-04-25 18:31 | 32.53995 | -36.14943 | 39142 ft | 505 kts | 47° |
| 2026-04-25 18:32 | 32.58189 | -36.08248 | 39142 ft | 505 kts | 47° |
| 2026-04-25 18:32 | 32.62384 | -36.01540 | 39124 ft | 505 kts | 47° |
| 2026-04-25 18:33 | 32.66546 | -35.94873 | 39128 ft | 505 kts | 48° |
| 2026-04-25 18:33 | 32.70729 | -35.88159 | 39132 ft | 504 kts | 48° |
| 2026-04-25 18:34 | 32.74906 | -35.81445 | 39133 ft | 504 kts | 48° |
| 2026-04-25 18:34 | 32.79049 | -35.74772 | 39159 ft | 504 kts | 48° |
| 2026-04-25 18:35 | 32.83215 | -35.68050 | 39131 ft | 504 kts | 48° |
| 2026-04-25 18:35 | 32.87369 | -35.61336 | 39135 ft | 503 kts | 48° |
| 2026-04-25 18:36 | 32.91494 | -35.54658 | 39134 ft | 503 kts | 48° |
| 2026-04-25 18:36 | 32.95641 | -35.47931 | 39143 ft | 503 kts | 48° |
| 2026-04-25 18:37 | 32.99782 | -35.41200 | 39135 ft | 502 kts | 48° |
| 2026-04-25 18:37 | 33.03887 | -35.34518 | 39131 ft | 502 kts | 48° |
| 2026-04-25 18:38 | 33.08022 | -35.27774 | 39138 ft | 502 kts | 48° |
| 2026-04-25 18:38 | 33.12114 | -35.21086 | 39146 ft | 502 kts | 48° |
| 2026-04-25 18:39 | 33.16238 | -35.14336 | 39136 ft | 501 kts | 48° |
| 2026-04-25 18:39 | 33.20347 | -35.07599 | 39129 ft | 501 kts | 48° |
| 2026-04-25 18:40 | 33.24449 | -35.00859 | 39140 ft | 501 kts | 48° |
| 2026-04-25 18:40 | 33.28525 | -34.94151 | 39133 ft | 501 kts | 48° |
| 2026-04-25 18:41 | 33.32620 | -34.87399 | 39135 ft | 500 kts | 48° |
| 2026-04-25 18:41 | 33.36680 | -34.80692 | 39135 ft | 500 kts | 48° |
| 2026-04-25 18:42 | 33.39408 | -34.76180 | 39135 ft | 500 kts | 48° |
| 2026-04-25 18:42 | 33.44834 | -34.67185 | 39138 ft | 500 kts | 48° |
| 2026-04-25 18:43 | 33.48876 | -34.60472 | 39131 ft | 499 kts | 48° |
| 2026-04-25 18:43 | 33.52940 | -34.53710 | 39134 ft | 499 kts | 48° |
| 2026-04-25 18:44 | 33.57003 | -34.46936 | 39151 ft | 499 kts | 48° |
| 2026-04-25 18:44 | 33.61031 | -34.40208 | 39139 ft | 499 kts | 48° |
| 2026-04-25 18:45 | 33.65081 | -34.33432 | 39137 ft | 499 kts | 48° |
| 2026-04-25 18:45 | 33.69128 | -34.26647 | 39152 ft | 498 kts | 48° |
| 2026-04-25 18:46 | 33.73166 | -34.19866 | 39152 ft | 498 kts | 48° |
| 2026-04-25 18:46 | 33.77174 | -34.13121 | 39145 ft | 498 kts | 48° |
| 2026-04-25 18:47 | 33.81199 | -34.06335 | 39134 ft | 497 kts | 48° |
| 2026-04-25 18:47 | 33.85215 | -33.99553 | 39140 ft | 496 kts | 48° |
| 2026-04-25 18:48 | 33.89188 | -33.92830 | 39140 ft | 496 kts | 48° |
| 2026-04-25 18:48 | 33.93189 | -33.86049 | 39140 ft | 496 kts | 48° |
| 2026-04-25 18:49 | 33.97191 | -33.79252 | 39140 ft | 496 kts | 48° |
| 2026-04-25 18:49 | 34.01164 | -33.72491 | 39140 ft | 497 kts | 48° |
| 2026-04-25 18:50 | 34.05157 | -33.65685 | 39146 ft | 497 kts | 48° |
| 2026-04-25 18:50 | 34.09146 | -33.58871 | 39137 ft | 496 kts | 48° |
| 2026-04-25 18:51 | 34.11785 | -33.54357 | 39139 ft | 496 kts | 48° |
| 2026-04-25 18:51 | 34.17084 | -33.45275 | 39146 ft | 496 kts | 49° |
| 2026-04-25 18:52 | 34.21055 | -33.38453 | 39147 ft | 495 kts | 49° |
| 2026-04-25 18:52 | 34.25027 | -33.31618 | 39137 ft | 495 kts | 49° |
| 2026-04-25 18:53 | 34.28954 | -33.24846 | 39135 ft | 494 kts | 49° |
| 2026-04-25 18:53 | 34.32901 | -33.18029 | 39136 ft | 494 kts | 49° |
| 2026-04-25 18:54 | 34.38789 | -33.07833 | 39138 ft | 493 kts | 49° |
| 2026-04-25 18:55 | 34.42722 | -33.01006 | 39135 ft | 493 kts | 49° |
| 2026-04-25 18:55 | 34.46643 | -32.94186 | 39139 ft | 493 kts | 49° |
| 2026-04-25 18:56 | 34.50543 | -32.87392 | 39157 ft | 492 kts | 49° |
| 2026-04-25 18:56 | 34.54458 | -32.80557 | 39136 ft | 492 kts | 49° |
| 2026-04-25 18:57 | 34.58339 | -32.73768 | 39135 ft | 491 kts | 49° |
| 2026-04-25 18:57 | 34.62231 | -32.66949 | 39144 ft | 491 kts | 49° |
| 2026-04-25 18:58 | 34.66126 | -32.60109 | 39142 ft | 491 kts | 49° |
| 2026-04-25 18:58 | 34.71931 | -32.49890 | 39131 ft | 490 kts | 50° |
| 2026-04-25 18:59 | 34.79655 | -32.36248 | 39136 ft | 490 kts | 50° |
| 2026-04-25 19:00 | 34.85446 | -32.25982 | 39144 ft | 490 kts | 50° |
| 2026-04-25 19:01 | 34.91207 | -32.15735 | 39133 ft | 489 kts | 50° |
| 2026-04-25 19:01 | 34.95052 | -32.08873 | 39132 ft | 489 kts | 50° |
| 2026-04-25 19:02 | 35.00778 | -31.98634 | 39130 ft | 488 kts | 51° |
| 2026-04-25 19:03 | 35.05177 | -31.90615 | 39130 ft | 488 kts | 51° |
| 2026-04-25 19:03 | 35.10168 | -31.81407 | 39136 ft | 487 kts | 51° |
| 2026-04-25 19:04 | 35.15148 | -31.72198 | 39133 ft | 487 kts | 52° |
| 2026-04-25 19:05 | 35.22580 | -31.58428 | 39132 ft | 485 kts | 52° |
| 2026-04-25 19:06 | 35.26300 | -31.51516 | 39137 ft | 485 kts | 52° |
| 2026-04-25 19:06 | 35.31846 | -31.41185 | 39131 ft | 485 kts | 52° |
| 2026-04-25 19:07 | 35.37402 | -31.30804 | 39131 ft | 485 kts | 52° |
| 2026-04-25 19:08 | 35.42930 | -31.20447 | 39132 ft | 485 kts | 52° |
| 2026-04-25 19:09 | 35.49694 | -31.07730 | 39130 ft | 485 kts | 52° |
| 2026-04-25 19:10 | 35.55826 | -30.96160 | 39151 ft | 485 kts | 52° |
| 2026-04-25 19:10 | 35.59491 | -30.89228 | 39130 ft | 485 kts | 52° |
| 2026-04-25 19:11 | 35.63165 | -30.82263 | 39125 ft | 484 kts | 52° |
| 2026-04-25 19:11 | 35.66829 | -30.75301 | 39131 ft | 483 kts | 53° |
| 2026-04-25 19:12 | 35.70459 | -30.68394 | 39129 ft | 483 kts | 53° |
| 2026-04-25 19:12 | 35.74108 | -30.61437 | 39133 ft | 483 kts | 53° |
| 2026-04-25 19:13 | 35.77734 | -30.54509 | 39128 ft | 483 kts | 53° |
| 2026-04-25 19:13 | 35.81374 | -30.47539 | 39127 ft | 482 kts | 53° |
| 2026-04-25 19:14 | 35.85009 | -30.40565 | 39128 ft | 482 kts | 53° |
| 2026-04-25 19:14 | 35.88614 | -30.33635 | 39137 ft | 482 kts | 53° |
| 2026-04-25 19:15 | 35.92237 | -30.26656 | 39129 ft | 482 kts | 53° |
| 2026-04-25 19:15 | 35.95852 | -30.19678 | 39129 ft | 481 kts | 53° |
| 2026-04-25 19:16 | 35.99436 | -30.12745 | 39127 ft | 481 kts | 53° |
| 2026-04-25 19:16 | 36.03035 | -30.05771 | 39141 ft | 481 kts | 53° |
| 2026-04-25 19:17 | 36.06630 | -29.98788 | 39130 ft | 480 kts | 53° |
| 2026-04-25 19:17 | 36.10195 | -29.91851 | 39124 ft | 480 kts | 53° |
| 2026-04-25 19:18 | 36.13772 | -29.84877 | 39128 ft | 479 kts | 53° |
| 2026-04-25 19:18 | 36.17346 | -29.77896 | 39133 ft | 479 kts | 53° |
| 2026-04-25 19:19 | 36.20900 | -29.70977 | 39120 ft | 478 kts | 53° |
| 2026-04-25 19:19 | 36.24458 | -29.64011 | 39127 ft | 478 kts | 53° |
| 2026-04-25 19:20 | 36.28004 | -29.57036 | 39129 ft | 478 kts | 53° |
| 2026-04-25 19:20 | 36.31526 | -29.50094 | 39129 ft | 478 kts | 53° |
| 2026-04-25 19:21 | 36.35065 | -29.43105 | 39125 ft | 477 kts | 53° |
| 2026-04-25 19:21 | 36.40356 | -29.32632 | 39127 ft | 476 kts | 53° |
| 2026-04-25 19:22 | 36.43856 | -29.25688 | 39124 ft | 476 kts | 53° |
| 2026-04-25 19:23 | 36.49132 | -29.15194 | 39133 ft | 476 kts | 53° |
| 2026-04-25 19:23 | 36.54369 | -29.04742 | 39126 ft | 476 kts | 54° |
| 2026-04-25 19:24 | 36.57871 | -28.97736 | 39128 ft | 476 kts | 54° |
| 2026-04-25 19:25 | 36.64844 | -28.83743 | 39124 ft | 476 kts | 54° |
| 2026-04-25 19:25 | 36.68309 | -28.76767 | 39125 ft | 475 kts | 54° |
| 2026-04-25 19:26 | 36.71788 | -28.69748 | 39127 ft | 475 kts | 54° |
| 2026-04-25 19:26 | 36.75268 | -28.62714 | 39134 ft | 476 kts | 54° |
| 2026-04-25 19:27 | 36.78154 | -28.56869 | 39131 ft | 476 kts | 54° |
| 2026-04-25 19:27 | 36.82197 | -28.48663 | 39128 ft | 476 kts | 54° |
| 2026-04-25 19:28 | 36.85652 | -28.41634 | 39125 ft | 477 kts | 54° |
| 2026-04-25 19:28 | 36.89119 | -28.34565 | 39125 ft | 477 kts | 54° |
| 2026-04-25 19:29 | 36.92582 | -28.27489 | 39139 ft | 477 kts | 54° |
| 2026-04-25 19:29 | 36.96045 | -28.20399 | 39134 ft | 477 kts | 54° |
| 2026-04-25 19:30 | 36.99480 | -28.13351 | 39126 ft | 476 kts | 54° |
| 2026-04-25 19:30 | 37.02932 | -28.06254 | 39140 ft | 476 kts | 54° |
| 2026-04-25 19:31 | 37.06390 | -27.99133 | 39132 ft | 478 kts | 54° |
| 2026-04-25 19:31 | 37.09820 | -27.92051 | 39133 ft | 479 kts | 54° |
| 2026-04-25 19:32 | 37.13277 | -27.84895 | 39132 ft | 479 kts | 54° |
| 2026-04-25 19:32 | 37.15564 | -27.80153 | 39130 ft | 480 kts | 54° |
| 2026-04-25 19:33 | 37.20172 | -27.70582 | 39135 ft | 481 kts | 54° |
| 2026-04-25 19:33 | 37.23634 | -27.63371 | 39134 ft | 482 kts | 54° |
| 2026-04-25 19:34 | 37.27073 | -27.56191 | 39131 ft | 482 kts | 54° |
| 2026-04-25 19:34 | 37.30529 | -27.48960 | 39130 ft | 482 kts | 54° |
| 2026-04-25 19:35 | 37.33983 | -27.41719 | 39126 ft | 483 kts | 55° |
| 2026-04-25 19:35 | 37.37437 | -27.34461 | 39136 ft | 483 kts | 55° |
| 2026-04-25 19:36 | 37.40860 | -27.27253 | 39136 ft | 482 kts | 55° |
| 2026-04-25 19:36 | 37.44304 | -27.19985 | 39119 ft | 482 kts | 55° |
| 2026-04-25 19:37 | 37.47738 | -27.12721 | 39122 ft | 482 kts | 55° |
| 2026-04-25 19:37 | 37.51150 | -27.05489 | 39139 ft | 482 kts | 55° |
| 2026-04-25 19:38 | 37.54576 | -26.98210 | 39129 ft | 482 kts | 55° |
| 2026-04-25 19:38 | 37.57998 | -26.90923 | 39126 ft | 482 kts | 55° |
| 2026-04-25 19:39 | 37.61397 | -26.83668 | 39139 ft | 483 kts | 56° |
| 2026-04-25 19:39 | 37.64817 | -26.76354 | 39134 ft | 484 kts | 56° |
| 2026-04-25 19:40 | 37.68239 | -26.69015 | 39137 ft | 484 kts | 56° |
| 2026-04-25 19:40 | 37.71628 | -26.61733 | 39136 ft | 484 kts | 56° |
| 2026-04-25 19:41 | 37.75044 | -26.54375 | 39135 ft | 485 kts | 56° |
| 2026-04-25 19:41 | 37.77328 | -26.49448 | 39135 ft | 485 kts | 56° |
| 2026-04-25 19:42 | 37.81870 | -26.39620 | 39144 ft | 486 kts | 56° |
| 2026-04-25 19:42 | 37.85256 | -26.32272 | 39139 ft | 487 kts | 56° |
| 2026-04-25 19:43 | 37.88668 | -26.24851 | 39144 ft | 487 kts | 57° |
| 2026-04-25 19:43 | 37.92077 | -26.17415 | 39138 ft | 487 kts | 57° |
| 2026-04-25 19:44 | 37.95459 | -26.10011 | 39140 ft | 488 kts | 57° |
| 2026-04-25 19:44 | 37.98860 | -26.02546 | 39140 ft | 488 kts | 57° |
| 2026-04-25 19:45 | 38.02300 | -25.95116 | 39141 ft | 488 kts | 56° |
| 2026-04-25 19:45 | 38.05837 | -25.87797 | 39137 ft | 488 kts | 55° |
| 2026-04-25 19:46 | 38.09390 | -25.80432 | 39142 ft | 489 kts | 56° |
| 2026-04-25 19:46 | 38.12918 | -25.73036 | 39142 ft | 489 kts | 56° |
| 2026-04-25 19:47 | 38.16411 | -25.65661 | 39142 ft | 489 kts | 56° |
| 2026-04-25 19:47 | 38.19920 | -25.58228 | 39144 ft | 490 kts | 56° |
| 2026-04-25 19:48 | 38.23435 | -25.50769 | 39145 ft | 491 kts | 56° |
| 2026-04-25 19:48 | 38.26922 | -25.43353 | 39145 ft | 491 kts | 57° |
| 2026-04-25 19:49 | 38.29255 | -25.38384 | 39148 ft | 492 kts | 57° |
| 2026-04-25 19:49 | 38.33924 | -25.28415 | 39145 ft | 492 kts | 57° |
| 2026-04-25 19:50 | 38.39171 | -25.17173 | 39144 ft | 491 kts | 57° |
| 2026-04-25 19:51 | 38.42076 | -25.10933 | 39146 ft | 491 kts | 57° |
| 2026-04-25 19:51 | 38.45570 | -25.03411 | 39147 ft | 491 kts | 57° |
| 2026-04-25 19:52 | 38.49051 | -24.95901 | 39138 ft | 492 kts | 57° |
| 2026-04-25 19:52 | 38.52518 | -24.88403 | 39143 ft | 493 kts | 57° |
| 2026-04-25 19:53 | 38.56009 | -24.80834 | 39147 ft | 494 kts | 57° |
| 2026-04-25 19:53 | 38.59496 | -24.73256 | 39144 ft | 494 kts | 57° |
| 2026-04-25 19:54 | 38.62964 | -24.65702 | 39135 ft | 495 kts | 58° |
| 2026-04-25 19:54 | 38.66453 | -24.58085 | 39147 ft | 497 kts | 58° |
| 2026-04-25 19:55 | 38.69953 | -24.50422 | 39153 ft | 498 kts | 58° |
| 2026-04-25 19:55 | 38.73434 | -24.42785 | 39146 ft | 499 kts | 58° |
| 2026-04-25 19:56 | 38.76934 | -24.35087 | 39134 ft | 500 kts | 59° |
| 2026-04-25 19:56 | 38.80440 | -24.27357 | 39142 ft | 500 kts | 59° |
| 2026-04-25 19:57 | 38.83916 | -24.19676 | 39145 ft | 501 kts | 59° |
| 2026-04-25 19:57 | 38.87420 | -24.11912 | 39144 ft | 501 kts | 59° |
| 2026-04-25 19:58 | 38.90897 | -24.04190 | 39134 ft | 501 kts | 59° |
| 2026-04-25 19:58 | 38.94393 | -23.96409 | 39145 ft | 502 kts | 59° |
| 2026-04-25 19:59 | 38.97883 | -23.88620 | 39145 ft | 503 kts | 59° |
| 2026-04-25 19:59 | 39.01353 | -23.80856 | 39144 ft | 503 kts | 59° |
| 2026-04-25 20:00 | 39.04840 | -23.73035 | 39139 ft | 504 kts | 59° |
| 2026-04-25 20:00 | 39.08335 | -23.65177 | 39152 ft | 504 kts | 59° |
| 2026-04-25 20:01 | 39.13547 | -23.53421 | 39149 ft | 505 kts | 60° |
| 2026-04-25 20:01 | 39.17007 | -23.45592 | 39143 ft | 506 kts | 60° |
| 2026-04-25 20:02 | 39.20493 | -23.37686 | 39136 ft | 506 kts | 60° |
| 2026-04-25 20:02 | 39.23947 | -23.29832 | 39141 ft | 506 kts | 60° |
| 2026-04-25 20:03 | 39.27420 | -23.21916 | 39147 ft | 506 kts | 60° |
| 2026-04-25 20:03 | 39.30889 | -23.13987 | 39150 ft | 506 kts | 60° |
| 2026-04-25 20:04 | 39.34330 | -23.06102 | 39145 ft | 506 kts | 60° |
| 2026-04-25 20:04 | 39.37789 | -22.98157 | 39144 ft | 506 kts | 60° |
| 2026-04-25 20:05 | 39.41237 | -22.90215 | 39149 ft | 506 kts | 60° |
| 2026-04-25 20:05 | 39.44661 | -22.82311 | 39149 ft | 506 kts | 60° |
| 2026-04-25 20:06 | 39.48105 | -22.74340 | 39147 ft | 505 kts | 60° |
| 2026-04-25 20:06 | 39.51510 | -22.66435 | 39151 ft | 505 kts | 60° |
| 2026-04-25 20:07 | 39.54938 | -22.58461 | 39147 ft | 505 kts | 60° |
| 2026-04-25 20:07 | 39.58356 | -22.50489 | 39153 ft | 505 kts | 60° |
| 2026-04-25 20:08 | 39.61771 | -22.42502 | 39145 ft | 505 kts | 60° |
| 2026-04-25 20:08 | 39.65160 | -22.34554 | 39148 ft | 504 kts | 60° |
| 2026-04-25 20:09 | 39.68557 | -22.26569 | 39153 ft | 504 kts | 60° |
| 2026-04-25 20:09 | 39.71921 | -22.18641 | 39152 ft | 504 kts | 60° |
| 2026-04-25 20:10 | 39.75305 | -22.10645 | 39156 ft | 504 kts | 60° |
| 2026-04-25 20:10 | 39.78683 | -22.02642 | 39153 ft | 504 kts | 60° |
| 2026-04-25 20:11 | 39.82030 | -21.94691 | 39148 ft | 504 kts | 61° |
| 2026-04-25 20:11 | 39.85398 | -21.86671 | 39147 ft | 504 kts | 61° |
| 2026-04-25 20:12 | 39.88737 | -21.78697 | 39151 ft | 504 kts | 61° |
| 2026-04-25 20:12 | 39.90984 | -21.73319 | 39148 ft | 504 kts | 61° |
| 2026-04-25 20:13 | 39.95440 | -21.62628 | 39149 ft | 504 kts | 61° |
| 2026-04-25 20:13 | 39.98784 | -21.54579 | 39150 ft | 504 kts | 61° |
| 2026-04-25 20:14 | 40.02109 | -21.46557 | 39149 ft | 504 kts | 61° |
| 2026-04-25 20:14 | 40.05445 | -21.38484 | 39150 ft | 505 kts | 61° |
| 2026-04-25 20:15 | 40.08783 | -21.30387 | 39150 ft | 505 kts | 61° |
| 2026-04-25 20:15 | 40.12092 | -21.22337 | 39150 ft | 506 kts | 61° |
| 2026-04-25 20:16 | 40.15420 | -21.14221 | 39150 ft | 506 kts | 61° |
| 2026-04-25 20:16 | 40.18752 | -21.06072 | 39148 ft | 507 kts | 61° |
| 2026-04-25 20:17 | 40.22053 | -20.97976 | 39152 ft | 507 kts | 61° |
| 2026-04-25 20:17 | 40.25374 | -20.89811 | 39149 ft | 508 kts | 61° |
| 2026-04-25 20:18 | 40.28695 | -20.81624 | 39154 ft | 508 kts | 61° |
| 2026-04-25 20:18 | 40.31989 | -20.73479 | 39154 ft | 508 kts | 61° |
| 2026-04-25 20:19 | 40.35302 | -20.65268 | 39156 ft | 508 kts | 61° |
| 2026-04-25 20:19 | 40.38606 | -20.57055 | 39158 ft | 509 kts | 61° |
| 2026-04-25 20:20 | 40.41889 | -20.48870 | 39155 ft | 508 kts | 61° |
| 2026-04-25 20:20 | 40.45165 | -20.40683 | 39153 ft | 508 kts | 61° |
| 2026-04-25 20:21 | 40.48449 | -20.32452 | 39158 ft | 507 kts | 62° |
| 2026-04-25 20:21 | 40.51721 | -20.24229 | 39157 ft | 507 kts | 62° |
| 2026-04-25 20:22 | 40.53883 | -20.18781 | 39161 ft | 507 kts | 62° |
| 2026-04-25 20:22 | 40.58223 | -20.07817 | 39153 ft | 506 kts | 62° |
| 2026-04-25 20:23 | 40.61471 | -19.99587 | 39160 ft | 506 kts | 62° |
| 2026-04-25 20:23 | 40.64696 | -19.91390 | 39164 ft | 506 kts | 62° |
| 2026-04-25 20:24 | 40.67931 | -19.83146 | 39168 ft | 506 kts | 62° |
| 2026-04-25 20:24 | 40.71163 | -19.74885 | 39160 ft | 507 kts | 62° |
| 2026-04-25 20:25 | 40.74376 | -19.66650 | 39167 ft | 507 kts | 62° |
| 2026-04-25 20:25 | 40.77603 | -19.58352 | 39167 ft | 507 kts | 62° |
| 2026-04-25 20:26 | 40.80827 | -19.50041 | 39169 ft | 508 kts | 62° |
| 2026-04-25 20:26 | 40.84021 | -19.41781 | 39163 ft | 508 kts | 62° |
| 2026-04-25 20:27 | 40.87238 | -19.33437 | 39176 ft | 509 kts | 62° |
| 2026-04-25 20:27 | 40.90430 | -19.25129 | 39175 ft | 509 kts | 62° |
| 2026-04-25 20:28 | 40.93633 | -19.16757 | 39174 ft | 510 kts | 62° |
| 2026-04-25 20:28 | 40.96828 | -19.08371 | 39175 ft | 510 kts | 62° |
| 2026-04-25 20:29 | 41.00087 | -19.00053 | 39199 ft | 510 kts | 58° |
| 2026-04-25 20:29 | 41.04122 | -18.92316 | 39175 ft | 510 kts | 51° |
| 2026-04-25 20:30 | 41.08350 | -18.84821 | 39181 ft | 510 kts | 51° |
| 2026-04-25 20:30 | 41.12576 | -18.77239 | 39187 ft | 511 kts | 52° |
| 2026-04-25 20:31 | 41.16770 | -18.69596 | 39189 ft | 511 kts | 52° |
| 2026-04-25 20:31 | 41.20918 | -18.61977 | 39187 ft | 511 kts | 52° |
| 2026-04-25 20:32 | 41.25088 | -18.54300 | 39188 ft | 511 kts | 52° |
| 2026-04-25 20:32 | 41.29248 | -18.46628 | 39184 ft | 511 kts | 52° |
| 2026-04-25 20:33 | 41.33379 | -18.38992 | 39182 ft | 511 kts | 52° |
| 2026-04-25 20:33 | 41.36133 | -18.33893 | 39187 ft | 511 kts | 52° |
| 2026-04-25 20:34 | 41.41661 | -18.23631 | 39188 ft | 511 kts | 52° |
| 2026-04-25 20:34 | 41.45804 | -18.15915 | 39191 ft | 511 kts | 52° |
| 2026-04-25 20:35 | 41.49920 | -18.08233 | 39185 ft | 511 kts | 52° |
| 2026-04-25 20:35 | 41.54058 | -18.00487 | 39195 ft | 511 kts | 53° |
| 2026-04-25 20:36 | 41.57493 | -17.94045 | 39193 ft | 511 kts | 53° |
| 2026-04-25 20:36 | 41.62289 | -17.85024 | 39210 ft | 512 kts | 53° |
| 2026-04-25 20:37 | 41.65719 | -17.78559 | 39202 ft | 512 kts | 53° |
| 2026-04-25 20:37 | 41.69845 | -17.70761 | 39198 ft | 512 kts | 53° |
| 2026-04-25 20:38 | 41.73969 | -17.62948 | 39202 ft | 513 kts | 53° |
| 2026-04-25 20:38 | 41.78058 | -17.55180 | 39204 ft | 513 kts | 53° |
| 2026-04-25 20:39 | 41.82176 | -17.47338 | 39205 ft | 513 kts | 53° |
| 2026-04-25 20:39 | 41.85594 | -17.40814 | 39207 ft | 513 kts | 53° |
| 2026-04-25 20:40 | 41.90368 | -17.31677 | 39208 ft | 513 kts | 53° |
| 2026-04-25 20:40 | 41.94470 | -17.23806 | 39214 ft | 513 kts | 53° |
| 2026-04-25 20:41 | 41.98575 | -17.15908 | 39211 ft | 514 kts | 53° |
| 2026-04-25 20:41 | 42.02639 | -17.08067 | 39213 ft | 514 kts | 53° |
| 2026-04-25 20:42 | 42.06724 | -17.00165 | 39212 ft | 513 kts | 53° |
| 2026-04-25 20:42 | 42.10777 | -16.92305 | 39215 ft | 513 kts | 53° |
| 2026-04-25 20:43 | 42.14844 | -16.84396 | 39217 ft | 513 kts | 53° |
| 2026-04-25 20:43 | 42.18909 | -16.76473 | 39218 ft | 512 kts | 53° |
| 2026-04-25 20:44 | 42.22945 | -16.68586 | 39219 ft | 513 kts | 53° |
| 2026-04-25 20:44 | 42.27006 | -16.60627 | 39221 ft | 514 kts | 53° |
| 2026-04-25 20:45 | 42.31037 | -16.52706 | 39223 ft | 514 kts | 53° |
| 2026-04-25 20:45 | 42.35082 | -16.44737 | 39223 ft | 514 kts | 54° |
| 2026-04-25 20:46 | 42.39131 | -16.36740 | 39223 ft | 514 kts | 54° |
| 2026-04-25 20:46 | 42.43172 | -16.28735 | 39222 ft | 514 kts | 53° |
| 2026-04-25 20:47 | 42.47196 | -16.20743 | 39226 ft | 513 kts | 53° |
| 2026-04-25 20:47 | 42.51199 | -16.12775 | 39232 ft | 514 kts | 54° |
| 2026-04-25 20:48 | 42.55225 | -16.04737 | 39230 ft | 514 kts | 54° |
| 2026-04-25 20:48 | 42.59218 | -15.96742 | 39227 ft | 514 kts | 54° |
| 2026-04-25 20:49 | 42.63228 | -15.88691 | 39231 ft | 513 kts | 54° |
| 2026-04-25 20:49 | 42.67230 | -15.80637 | 39231 ft | 513 kts | 54° |
| 2026-04-25 20:50 | 42.71194 | -15.72640 | 39234 ft | 513 kts | 54° |
| 2026-04-25 20:50 | 42.75181 | -15.64572 | 39248 ft | 513 kts | 54° |
| 2026-04-25 20:51 | 42.79156 | -15.56506 | 39238 ft | 512 kts | 54° |
| 2026-04-25 20:51 | 42.83103 | -15.48476 | 39236 ft | 512 kts | 54° |
| 2026-04-25 20:52 | 42.86402 | -15.41747 | 39236 ft | 512 kts | 54° |
| 2026-04-25 20:52 | 42.91029 | -15.32285 | 39237 ft | 512 kts | 54° |
| 2026-04-25 20:53 | 42.94962 | -15.24218 | 39237 ft | 512 kts | 54° |
| 2026-04-25 20:53 | 42.98912 | -15.16093 | 39237 ft | 512 kts | 54° |
| 2026-04-25 20:54 | 43.02826 | -15.08020 | 39249 ft | 512 kts | 54° |
| 2026-04-25 20:54 | 43.06769 | -14.99867 | 39240 ft | 513 kts | 54° |
| 2026-04-25 20:55 | 43.10684 | -14.91749 | 39239 ft | 513 kts | 54° |
| 2026-04-25 20:55 | 43.14609 | -14.83585 | 39242 ft | 512 kts | 55° |
| 2026-04-25 20:56 | 43.18523 | -14.75423 | 39238 ft | 512 kts | 55° |
| 2026-04-25 20:56 | 43.22427 | -14.67260 | 39239 ft | 511 kts | 55° |
| 2026-04-25 20:57 | 43.26297 | -14.59146 | 39242 ft | 511 kts | 55° |
| 2026-04-25 20:57 | 43.30181 | -14.50977 | 39248 ft | 510 kts | 55° |
| 2026-04-25 20:58 | 43.34057 | -14.42804 | 39245 ft | 509 kts | 55° |
| 2026-04-25 20:58 | 43.37916 | -14.34647 | 39244 ft | 509 kts | 55° |
| 2026-04-25 20:59 | 43.41748 | -14.26521 | 39245 ft | 508 kts | 55° |
| 2026-04-25 20:59 | 43.45602 | -14.18325 | 39243 ft | 508 kts | 55° |
| 2026-04-25 21:00 | 43.48141 | -14.12914 | 39240 ft | 507 kts | 55° |
| 2026-04-25 21:01 | 43.55143 | -13.97941 | 39249 ft | 506 kts | 56° |
| 2026-04-25 21:01 | 43.58932 | -13.89807 | 39250 ft | 506 kts | 56° |
| 2026-04-25 21:02 | 43.62747 | -13.81633 | 39245 ft | 505 kts | 56° |
| 2026-04-25 21:02 | 43.66537 | -13.73458 | 39249 ft | 503 kts | 56° |
| 2026-04-25 21:03 | 43.70305 | -13.65293 | 39249 ft | 502 kts | 56° |
| 2026-04-25 21:03 | 43.74026 | -13.57206 | 39250 ft | 501 kts | 56° |
| 2026-04-25 21:04 | 43.77769 | -13.49052 | 39242 ft | 501 kts | 56° |
| 2026-04-25 21:04 | 43.81503 | -13.40889 | 39246 ft | 500 kts | 56° |
| 2026-04-25 21:05 | 43.85225 | -13.32732 | 39250 ft | 500 kts | 56° |
| 2026-04-25 21:05 | 43.88920 | -13.24607 | 39250 ft | 500 kts | 56° |
| 2026-04-25 21:06 | 43.92627 | -13.16423 | 39252 ft | 500 kts | 57° |
| 2026-04-25 21:06 | 43.96326 | -13.08212 | 39250 ft | 501 kts | 56° |
| 2026-04-25 21:07 | 44.00010 | -13.00064 | 39253 ft | 501 kts | 55° |
| 2026-04-25 21:07 | 44.03995 | -12.92106 | 39244 ft | 501 kts | 52° |
| 2026-04-25 21:08 | 44.08112 | -12.84329 | 39250 ft | 501 kts | 52° |
| 2026-04-25 21:08 | 44.12221 | -12.76477 | 39242 ft | 501 kts | 52° |
| 2026-04-25 21:09 | 44.18283 | -12.64667 | 39247 ft | 500 kts | 52° |
| 2026-04-25 21:09 | 44.22313 | -12.56760 | 39247 ft | 500 kts | 52° |
| 2026-04-25 21:10 | 44.26346 | -12.48832 | 39249 ft | 500 kts | 52° |
| 2026-04-25 21:10 | 44.30282 | -12.40891 | 39234 ft | 498 kts | 57° |
| 2026-04-25 21:11 | 44.33175 | -12.32110 | 39268 ft | 498 kts | 69° |
| 2026-04-25 21:11 | 44.35017 | -12.22768 | 39263 ft | 498 kts | 76° |
| 2026-04-25 21:12 | 44.36550 | -12.13386 | 39250 ft | 498 kts | 77° |
| 2026-04-25 21:12 | 44.37566 | -12.07061 | 39251 ft | 498 kts | 77° |
| 2026-04-25 21:13 | 44.39608 | -11.94482 | 39245 ft | 497 kts | 77° |
| 2026-04-25 21:13 | 44.41137 | -11.85131 | 39247 ft | 495 kts | 77° |
| 2026-04-25 21:14 | 44.42672 | -11.75711 | 39245 ft | 495 kts | 77° |
| 2026-04-25 21:14 | 44.44187 | -11.66360 | 39247 ft | 494 kts | 77° |
| 2026-04-25 21:15 | 44.45700 | -11.56962 | 39256 ft | 494 kts | 77° |
| 2026-04-25 21:15 | 44.47206 | -11.47545 | 39259 ft | 495 kts | 77° |
| 2026-04-25 21:16 | 44.48694 | -11.38190 | 39249 ft | 495 kts | 77° |
| 2026-04-25 21:16 | 44.50185 | -11.28764 | 39243 ft | 495 kts | 77° |
| 2026-04-25 21:17 | 44.51670 | -11.19321 | 39253 ft | 495 kts | 77° |
| 2026-04-25 21:17 | 44.53139 | -11.09934 | 39253 ft | 495 kts | 77° |
| 2026-04-25 21:18 | 44.54606 | -11.00501 | 39243 ft | 495 kts | 77° |
| 2026-04-25 21:18 | 44.56066 | -10.91055 | 39250 ft | 495 kts | 77° |
| 2026-04-25 21:19 | 44.57508 | -10.81670 | 39252 ft | 495 kts | 77° |
| 2026-04-25 21:19 | 44.58953 | -10.72213 | 39253 ft | 495 kts | 77° |
| 2026-04-25 21:20 | 44.59904 | -10.65959 | 39246 ft | 494 kts | 77° |
| 2026-04-25 21:20 | 44.61808 | -10.53362 | 39251 ft | 494 kts | 77° |
| 2026-04-25 21:21 | 44.63226 | -10.43915 | 39249 ft | 494 kts | 78° |
| 2026-04-25 21:21 | 44.64638 | -10.34456 | 39249 ft | 494 kts | 78° |
| 2026-04-25 21:22 | 44.66030 | -10.25066 | 39240 ft | 494 kts | 78° |
| 2026-04-25 21:22 | 44.67423 | -10.15619 | 39248 ft | 493 kts | 78° |
| 2026-04-25 21:23 | 44.68573 | -10.07771 | 39251 ft | 492 kts | 78° |
| 2026-04-25 21:23 | 44.69950 | -9.98330 | 39248 ft | 492 kts | 78° |
| 2026-04-25 21:24 | 44.71309 | -9.88952 | 39250 ft | 492 kts | 78° |
| 2026-04-25 21:24 | 44.72668 | -9.79508 | 39242 ft | 492 kts | 78° |
| 2026-04-25 21:25 | 44.74018 | -9.70072 | 39244 ft | 492 kts | 78° |
| 2026-04-25 21:25 | 44.75355 | -9.60675 | 39252 ft | 492 kts | 78° |
| 2026-04-25 21:26 | 44.76691 | -9.51220 | 39247 ft | 492 kts | 78° |
| 2026-04-25 21:26 | 44.78022 | -9.41738 | 39242 ft | 493 kts | 78° |
| 2026-04-25 21:27 | 44.79337 | -9.32312 | 39249 ft | 493 kts | 78° |
| 2026-04-25 21:27 | 44.80651 | -9.22830 | 39243 ft | 494 kts | 78° |
| 2026-04-25 21:28 | 44.81963 | -9.13307 | 39239 ft | 494 kts | 78° |
| 2026-04-25 21:28 | 44.83264 | -9.03796 | 39239 ft | 493 kts | 78° |
| 2026-04-25 21:29 | 44.84548 | -8.94348 | 39252 ft | 493 kts | 78° |
| 2026-04-25 21:29 | 44.85834 | -8.84828 | 39239 ft | 493 kts | 78° |
| 2026-04-25 21:30 | 44.87101 | -8.75379 | 39244 ft | 493 kts | 78° |
| 2026-04-25 21:30 | 44.88155 | -8.67465 | 39243 ft | 492 kts | 78° |
| 2026-04-25 21:31 | 44.89625 | -8.56361 | 39244 ft | 492 kts | 78° |
| 2026-04-25 21:31 | 44.90870 | -8.46883 | 39241 ft | 491 kts | 79° |
| 2026-04-25 21:32 | 44.92100 | -8.37449 | 39239 ft | 491 kts | 78° |
| 2026-04-25 21:32 | 44.93327 | -8.27961 | 39239 ft | 490 kts | 78° |
| 2026-04-25 21:33 | 44.94544 | -8.18482 | 39342 ft | 495 kts | 79° |
| 2026-04-25 21:33 | 44.95768 | -8.08853 | 39476 ft | 497 kts | 79° |
| 2026-04-25 21:34 | 44.96374 | -8.04040 | 39667 ft | 496 kts | 79° |
| 2026-04-25 21:34 | 44.96966 | -7.99303 | 39839 ft | 495 kts | 79° |
| 2026-04-25 21:34 | 44.97569 | -7.94508 | 39959 ft | 495 kts | 79° |
| 2026-04-25 21:34 | 44.98179 | -7.89711 | 40061 ft | 495 kts | 78° |
| 2026-04-25 21:35 | 44.99859 | -7.80249 | 40184 ft | 497 kts | 72° |
| 2026-04-25 21:35 | 45.01780 | -7.70901 | 40235 ft | 498 kts | 72° |
| 2026-04-25 21:36 | 45.03680 | -7.61480 | 40243 ft | 496 kts | 73° |
| 2026-04-25 21:36 | 45.05524 | -7.52064 | 40233 ft | 495 kts | 73° |
| 2026-04-25 21:37 | 45.07032 | -7.44258 | 40238 ft | 493 kts | 73° |
| 2026-04-25 21:37 | 45.09125 | -7.33366 | 40235 ft | 492 kts | 73° |
| 2026-04-25 21:38 | 45.10916 | -7.24004 | 40239 ft | 491 kts | 73° |
| 2026-04-25 21:38 | 45.12686 | -7.14715 | 40234 ft | 490 kts | 73° |
| 2026-04-25 21:39 | 45.14447 | -7.05432 | 40234 ft | 490 kts | 73° |
| 2026-04-25 21:39 | 45.16211 | -6.96083 | 40235 ft | 490 kts | 73° |
| 2026-04-25 21:40 | 45.17965 | -6.86739 | 40246 ft | 490 kts | 73° |
| 2026-04-25 21:40 | 45.19699 | -6.77457 | 40236 ft | 490 kts | 73° |
| 2026-04-25 21:41 | 45.21437 | -6.68113 | 40236 ft | 489 kts | 73° |
| 2026-04-25 21:41 | 45.23169 | -6.58748 | 40232 ft | 489 kts | 73° |
| 2026-04-25 21:42 | 45.24878 | -6.49461 | 40238 ft | 488 kts | 73° |
| 2026-04-25 21:42 | 45.26586 | -6.40130 | 40230 ft | 487 kts | 73° |
| 2026-04-25 21:43 | 45.28284 | -6.30814 | 40227 ft | 486 kts | 73° |
| 2026-04-25 21:43 | 45.29958 | -6.21577 | 40223 ft | 485 kts | 73° |
| 2026-04-25 21:44 | 45.31634 | -6.12282 | 40232 ft | 485 kts | 73° |
| 2026-04-25 21:45 | 45.34120 | -5.98404 | 40230 ft | 484 kts | 73° |
| 2026-04-25 21:45 | 45.35772 | -5.89127 | 40229 ft | 483 kts | 73° |
| 2026-04-25 21:46 | 45.37417 | -5.79838 | 40232 ft | 483 kts | 73° |
| 2026-04-25 21:46 | 45.39040 | -5.70624 | 40224 ft | 483 kts | 73° |
| 2026-04-25 21:47 | 45.40667 | -5.61338 | 40227 ft | 482 kts | 73° |
| 2026-04-25 21:47 | 45.42285 | -5.52050 | 40225 ft | 482 kts | 73° |
| 2026-04-25 21:48 | 45.43893 | -5.42768 | 40224 ft | 482 kts | 74° |
| 2026-04-25 21:48 | 45.45481 | -5.33543 | 40232 ft | 481 kts | 73° |
| 2026-04-25 21:49 | 45.47070 | -5.24266 | 40216 ft | 482 kts | 73° |
| 2026-04-25 21:49 | 45.48640 | -5.15033 | 40222 ft | 482 kts | 73° |
| 2026-04-25 21:50 | 45.50202 | -5.05748 | 40224 ft | 482 kts | 74° |
| 2026-04-25 21:50 | 45.51773 | -4.96432 | 40222 ft | 482 kts | 74° |
| 2026-04-25 21:51 | 45.53204 | -4.87153 | 40216 ft | 482 kts | 76° |
| 2026-04-25 21:51 | 45.54514 | -4.77771 | 40215 ft | 482 kts | 76° |
| 2026-04-25 21:52 | 45.55806 | -4.68380 | 40205 ft | 482 kts | 76° |
| 2026-04-25 21:52 | 45.57096 | -4.59053 | 40207 ft | 482 kts | 76° |
| 2026-04-25 21:53 | 45.58397 | -4.49649 | 40215 ft | 482 kts | 76° |
| 2026-04-25 21:53 | 45.59684 | -4.40306 | 40208 ft | 482 kts | 76° |
| 2026-04-25 21:54 | 45.60970 | -4.30907 | 40201 ft | 482 kts | 77° |
| 2026-04-25 21:54 | 45.62247 | -4.21503 | 40196 ft | 482 kts | 77° |
| 2026-04-25 21:55 | 45.63509 | -4.12147 | 40204 ft | 482 kts | 77° |
| 2026-04-25 21:55 | 45.64773 | -4.02724 | 40212 ft | 482 kts | 77° |
| 2026-04-25 21:56 | 45.66026 | -3.93317 | 40211 ft | 482 kts | 77° |
| 2026-04-25 21:56 | 45.67274 | -3.83883 | 40199 ft | 482 kts | 77° |
| 2026-04-25 21:57 | 45.68506 | -3.74503 | 40194 ft | 482 kts | 77° |
| 2026-04-25 21:57 | 45.69738 | -3.65065 | 40193 ft | 482 kts | 77° |
| 2026-04-25 21:58 | 45.70956 | -3.55672 | 40200 ft | 482 kts | 77° |
| 2026-04-25 21:58 | 45.72174 | -3.46210 | 40198 ft | 483 kts | 77° |
| 2026-04-25 21:59 | 45.73386 | -3.36738 | 40193 ft | 483 kts | 77° |
| 2026-04-25 21:59 | 45.74582 | -3.27320 | 40191 ft | 483 kts | 77° |
| 2026-04-25 22:00 | 45.76365 | -3.13152 | 40196 ft | 483 kts | 77° |
| 2026-04-25 22:00 | 45.77551 | -3.03653 | 40190 ft | 484 kts | 77° |
| 2026-04-25 22:01 | 45.78728 | -2.94154 | 40186 ft | 484 kts | 77° |
| 2026-04-25 22:01 | 45.79700 | -2.86249 | 40185 ft | 484 kts | 77° |
| 2026-04-25 22:02 | 45.81052 | -2.75189 | 40185 ft | 484 kts | 77° |
| 2026-04-25 22:02 | 45.82205 | -2.65676 | 40185 ft | 485 kts | 77° |
| 2026-04-25 22:03 | 45.83354 | -2.56130 | 40186 ft | 485 kts | 77° |
| 2026-04-25 22:03 | 45.84487 | -2.46637 | 40186 ft | 485 kts | 77° |
| 2026-04-25 22:04 | 45.85619 | -2.37084 | 40185 ft | 485 kts | 77° |
| 2026-04-25 22:04 | 45.86744 | -2.27517 | 40184 ft | 485 kts | 78° |
| 2026-04-25 22:05 | 45.87852 | -2.18012 | 40184 ft | 485 kts | 78° |
| 2026-04-25 22:05 | 45.88958 | -2.08446 | 40185 ft | 485 kts | 78° |
| 2026-04-25 22:06 | 45.90052 | -1.98898 | 40185 ft | 484 kts | 78° |
| 2026-04-25 22:06 | 45.91139 | -1.89321 | 40184 ft | 485 kts | 78° |
| 2026-04-25 22:07 | 45.92031 | -1.81342 | 40186 ft | 486 kts | 78° |
| 2026-04-25 22:07 | 45.93284 | -1.70187 | 40186 ft | 486 kts | 77° |
| 2026-04-25 22:08 | 45.94991 | -1.60876 | 40184 ft | 482 kts | 66° |
| 2026-04-25 22:08 | 45.97004 | -1.53323 | 40191 ft | 483 kts | 66° |
| 2026-04-25 22:09 | 45.99407 | -1.44351 | 40187 ft | 484 kts | 66° |
| 2026-04-25 22:09 | 46.01780 | -1.35250 | 40186 ft | 485 kts | 67° |
| 2026-04-25 22:10 | 46.04123 | -1.26106 | 40184 ft | 486 kts | 67° |
| 2026-04-25 22:10 | 46.06437 | -1.17009 | 40189 ft | 487 kts | 67° |
| 2026-04-25 22:11 | 46.08766 | -1.07825 | 40191 ft | 487 kts | 67° |
| 2026-04-25 22:11 | 46.11077 | -0.98683 | 40183 ft | 488 kts | 67° |
| 2026-04-25 22:12 | 46.13397 | -0.89467 | 40179 ft | 488 kts | 67° |
| 2026-04-25 22:12 | 46.15317 | -0.81817 | 40179 ft | 488 kts | 67° |
| 2026-04-25 22:13 | 46.17997 | -0.71095 | 40182 ft | 488 kts | 68° |
| 2026-04-25 22:13 | 46.20296 | -0.61853 | 40176 ft | 488 kts | 68° |
| 2026-04-25 22:14 | 46.22569 | -0.52677 | 40176 ft | 487 kts | 68° |
| 2026-04-25 22:14 | 46.24850 | -0.43433 | 40172 ft | 487 kts | 68° |
| 2026-04-25 22:15 | 46.27121 | -0.34191 | 40173 ft | 487 kts | 68° |
| 2026-04-25 22:16 | 46.30494 | -0.20388 | 40171 ft | 487 kts | 68° |
| 2026-04-25 22:16 | 46.32751 | -0.11109 | 40171 ft | 487 kts | 68° |
| 2026-04-25 22:17 | 46.34979 | -0.01904 | 40168 ft | 487 kts | 68° |
| 2026-04-25 22:17 | 46.37217 | 0.07377 | 40172 ft | 488 kts | 68° |
| 2026-04-25 22:18 | 46.39448 | 0.16673 | 40163 ft | 488 kts | 68° |
| 2026-04-25 22:18 | 46.41676 | 0.25998 | 40178 ft | 489 kts | 68° |
| 2026-04-25 22:19 | 46.43879 | 0.35261 | 40180 ft | 489 kts | 68° |
| 2026-04-25 22:19 | 46.46093 | 0.44618 | 40177 ft | 489 kts | 68° |
| 2026-04-25 22:20 | 46.48285 | 0.53935 | 40040 ft | 482 kts | 68° |
| 2026-04-25 22:20 | 46.49345 | 0.58461 | 39585 ft | 478 kts | 68° |
| 2026-04-25 22:20 | 46.50416 | 0.63057 | 38846 ft | 481 kts | 69° |
| 2026-04-25 22:20 | 46.51492 | 0.67676 | 38097 ft | 482 kts | 69° |
| 2026-04-25 22:21 | 46.52568 | 0.72273 | 37548 ft | 477 kts | 69° |
| 2026-04-25 22:21 | 46.53494 | 0.76808 | 37103 ft | 472 kts | 74° |
| 2026-04-25 22:21 | 46.54131 | 0.81471 | 36666 ft | 468 kts | 80° |
| 2026-04-25 22:21 | 46.54444 | 0.86174 | 36144 ft | 465 kts | 84° |
| 2026-04-25 22:22 | 46.54682 | 0.90863 | 35653 ft | 462 kts | 84° |
| 2026-04-25 22:22 | 46.54909 | 0.95519 | 35180 ft | 459 kts | 84° |
| 2026-04-25 22:22 | 46.55129 | 1.00072 | 34737 ft | 456 kts | 84° |
| 2026-04-25 22:22 | 46.55351 | 1.04674 | 34293 ft | 453 kts | 85° |
| 2026-04-25 22:23 | 46.55573 | 1.09231 | 33815 ft | 449 kts | 85° |
| 2026-04-25 22:23 | 46.55794 | 1.13752 | 33345 ft | 446 kts | 85° |
| 2026-04-25 22:23 | 46.56013 | 1.18232 | 32903 ft | 441 kts | 85° |
| 2026-04-25 22:23 | 46.56227 | 1.22612 | 32448 ft | 438 kts | 86° |
| 2026-04-25 22:24 | 46.56440 | 1.27018 | 32038 ft | 433 kts | 86° |
| 2026-04-25 22:24 | 46.56649 | 1.31359 | 31711 ft | 427 kts | 86° |
| 2026-04-25 22:24 | 46.56855 | 1.35646 | 31306 ft | 422 kts | 86° |
| 2026-04-25 22:24 | 46.57054 | 1.39843 | 30877 ft | 419 kts | 86° |
| 2026-04-25 22:25 | 46.57251 | 1.44035 | 30748 ft | 411 kts | 86° |
| 2026-04-25 22:25 | 46.57446 | 1.48198 | 30639 ft | 414 kts | 86° |
| 2026-04-25 22:25 | 46.57639 | 1.52393 | 30535 ft | 418 kts | 86° |
| 2026-04-25 22:25 | 46.57832 | 1.56623 | 30428 ft | 419 kts | 86° |
| 2026-04-25 22:26 | 46.58024 | 1.60855 | 30314 ft | 418 kts | 86° |
| 2026-04-25 22:26 | 46.58213 | 1.65073 | 30178 ft | 417 kts | 86° |
| 2026-04-25 22:26 | 46.58399 | 1.69223 | 30063 ft | 415 kts | 86° |
| 2026-04-25 22:26 | 46.58585 | 1.73406 | 29955 ft | 414 kts | 86° |
| 2026-04-25 22:27 | 46.58769 | 1.77577 | 29849 ft | 413 kts | 86° |
| 2026-04-25 22:27 | 46.58951 | 1.81749 | 29730 ft | 412 kts | 86° |
| 2026-04-25 22:27 | 46.59131 | 1.85913 | 29640 ft | 412 kts | 86° |
| 2026-04-25 22:27 | 46.59309 | 1.90075 | 29527 ft | 411 kts | 86° |
| 2026-04-25 22:28 | 46.59483 | 1.94187 | 29418 ft | 411 kts | 86° |
| 2026-04-25 22:28 | 46.59658 | 1.98343 | 29309 ft | 411 kts | 86° |
| 2026-04-25 22:28 | 46.59832 | 2.02500 | 29196 ft | 411 kts | 86° |
| 2026-04-25 22:28 | 46.60004 | 2.06652 | 29094 ft | 411 kts | 86° |
| 2026-04-25 22:29 | 46.60174 | 2.10819 | 28992 ft | 412 kts | 86° |
| 2026-04-25 22:29 | 46.60341 | 2.14934 | 28884 ft | 413 kts | 86° |
| 2026-04-25 22:29 | 46.60509 | 2.19110 | 28786 ft | 413 kts | 86° |
| 2026-04-25 22:30 | 46.60841 | 2.27479 | 28572 ft | 414 kts | 87° |
| 2026-04-25 22:30 | 46.61004 | 2.31668 | 28470 ft | 414 kts | 87° |
| 2026-04-25 22:30 | 46.61164 | 2.35790 | 28360 ft | 414 kts | 87° |
| 2026-04-25 22:30 | 46.61273 | 2.38624 | 28286 ft | 413 kts | 87° |
| 2026-04-25 22:31 | 46.61483 | 2.44150 | 28128 ft | 412 kts | 86° |
| 2026-04-25 22:31 | 46.61641 | 2.48319 | 28031 ft | 411 kts | 86° |
| 2026-04-25 22:31 | 46.61796 | 2.52478 | 27930 ft | 410 kts | 86° |
| 2026-04-25 22:31 | 46.61948 | 2.56574 | 27821 ft | 410 kts | 86° |
| 2026-04-25 22:32 | 46.62099 | 2.60716 | 27700 ft | 409 kts | 86° |
| 2026-04-25 22:32 | 46.62248 | 2.64841 | 27616 ft | 408 kts | 87° |
| 2026-04-25 22:32 | 46.62396 | 2.68972 | 27501 ft | 407 kts | 87° |
| 2026-04-25 22:32 | 46.62542 | 2.73089 | 27396 ft | 406 kts | 87° |
| 2026-04-25 22:33 | 46.62686 | 2.77198 | 27287 ft | 405 kts | 87° |
| 2026-04-25 22:33 | 46.62829 | 2.81278 | 26472 ft | 414 kts | 87° |
| 2026-04-25 22:33 | 46.62980 | 2.85511 | 25814 ft | 419 kts | 86° |
| 2026-04-25 22:33 | 46.63139 | 2.89831 | 26044 ft | 435 kts | 87° |
| 2026-04-25 22:34 | 46.63282 | 2.94335 | 26129 ft | 455 kts | 87° |
| 2026-04-25 22:34 | 46.63424 | 2.99046 | 26192 ft | 473 kts | 87° |
| 2026-04-25 22:34 | 46.63568 | 3.03816 | 26209 ft | 484 kts | 87° |
| 2026-04-25 22:34 | 46.63722 | 3.08809 | 26216 ft | 500 kts | 87° |
| 2026-04-25 22:35 | 46.63881 | 3.13924 | 26208 ft | 507 kts | 87° |
| 2026-04-25 22:35 | 46.64041 | 3.19072 | 26202 ft | 508 kts | 87° |
| 2026-04-25 22:35 | 46.64198 | 3.24152 | 26196 ft | 508 kts | 87° |
| 2026-04-25 22:35 | 46.64353 | 3.29288 | 26179 ft | 508 kts | 87° |
| 2026-04-25 22:36 | 46.64503 | 3.34430 | 26083 ft | 507 kts | 87° |
| 2026-04-25 22:36 | 46.64652 | 3.39565 | 25972 ft | 506 kts | 87° |
| 2026-04-25 22:36 | 46.64803 | 3.44681 | 25780 ft | 505 kts | 87° |
| 2026-04-25 22:36 | 46.64938 | 3.49737 | 25530 ft | 504 kts | 88° |
| 2026-04-25 22:37 | 46.65052 | 3.54823 | 25282 ft | 502 kts | 88° |
| 2026-04-25 22:37 | 46.65151 | 3.59906 | 25079 ft | 500 kts | 88° |
| 2026-04-25 22:37 | 46.65240 | 3.64966 | 24913 ft | 498 kts | 89° |
| 2026-04-25 22:37 | 46.65326 | 3.70008 | 24758 ft | 496 kts | 89° |
| 2026-04-25 22:38 | 46.65408 | 3.75022 | 24603 ft | 495 kts | 89° |
| 2026-04-25 22:38 | 46.65490 | 3.80034 | 24460 ft | 494 kts | 89° |
| 2026-04-25 22:38 | 46.65570 | 3.84968 | 24323 ft | 493 kts | 89° |
| 2026-04-25 22:38 | 46.65649 | 3.89961 | 24182 ft | 492 kts | 89° |
| 2026-04-25 22:39 | 46.65727 | 3.94947 | 24045 ft | 491 kts | 89° |
| 2026-04-25 22:39 | 46.65802 | 3.99916 | 23904 ft | 491 kts | 89° |
| 2026-04-25 22:39 | 46.65875 | 4.04897 | 23771 ft | 490 kts | 89° |
| 2026-04-25 22:39 | 46.65945 | 4.09849 | 23619 ft | 489 kts | 89° |
| 2026-04-25 22:40 | 46.66012 | 4.14737 | 23455 ft | 487 kts | 89° |
| 2026-04-25 22:40 | 46.66077 | 4.19669 | 23298 ft | 485 kts | 89° |
| 2026-04-25 22:40 | 46.66140 | 4.24558 | 23225 ft | 482 kts | 89° |
| 2026-04-25 22:40 | 46.66201 | 4.29446 | 23173 ft | 482 kts | 89° |
| 2026-04-25 22:41 | 46.66260 | 4.34336 | 23168 ft | 482 kts | 89° |
| 2026-04-25 22:41 | 46.66316 | 4.39165 | 23164 ft | 483 kts | 89° |
| 2026-04-25 22:41 | 46.66371 | 4.44061 | 23161 ft | 483 kts | 89° |
| 2026-04-25 22:41 | 46.66423 | 4.48960 | 23158 ft | 483 kts | 89° |
| 2026-04-25 22:42 | 46.66473 | 4.53852 | 23161 ft | 483 kts | 89° |
| 2026-04-25 22:42 | 46.66521 | 4.58746 | 23156 ft | 483 kts | 89° |
| 2026-04-25 22:42 | 46.66567 | 4.63651 | 23162 ft | 484 kts | 89° |
| 2026-04-25 22:42 | 46.66611 | 4.68504 | 23155 ft | 484 kts | 89° |
| 2026-04-25 22:43 | 46.66652 | 4.73404 | 23153 ft | 484 kts | 89° |
| 2026-04-25 22:43 | 46.66691 | 4.78310 | 23155 ft | 483 kts | 89° |
| 2026-04-25 22:43 | 46.66728 | 4.83225 | 23155 ft | 483 kts | 89° |
| 2026-04-25 22:43 | 46.66761 | 4.88064 | 23150 ft | 483 kts | 89° |
| 2026-04-25 22:44 | 46.66792 | 4.92962 | 23058 ft | 484 kts | 89° |
| 2026-04-25 22:44 | 46.66819 | 4.97864 | 22778 ft | 482 kts | 89° |
| 2026-04-25 22:44 | 46.66842 | 5.02736 | 22509 ft | 478 kts | 89° |
| 2026-04-25 22:44 | 46.66867 | 5.07575 | 22245 ft | 476 kts | 89° |
| 2026-04-25 22:45 | 46.66895 | 5.12391 | 21983 ft | 474 kts | 88° |
| 2026-04-25 22:45 | 46.67079 | 5.17113 | 21733 ft | 471 kts | 83° |
| 2026-04-25 22:45 | 46.67574 | 5.21831 | 21477 ft | 469 kts | 77° |
| 2026-04-25 22:45 | 46.68382 | 5.26424 | 21226 ft | 467 kts | 73° |
| 2026-04-25 22:46 | 46.69254 | 5.30987 | 20972 ft | 466 kts | 73° |
| 2026-04-25 22:46 | 46.70116 | 5.35536 | 20729 ft | 464 kts | 73° |
| 2026-04-25 22:46 | 46.70949 | 5.40003 | 20566 ft | 460 kts | 73° |
| 2026-04-25 22:46 | 46.71774 | 5.44493 | 20420 ft | 457 kts | 73° |
| 2026-04-25 22:47 | 46.72588 | 5.48972 | 20271 ft | 455 kts | 73° |
| 2026-04-25 22:47 | 46.73390 | 5.53423 | 20132 ft | 453 kts | 73° |
| 2026-04-25 22:47 | 46.74189 | 5.57884 | 19988 ft | 452 kts | 74° |
| 2026-04-25 22:47 | 46.74980 | 5.62321 | 19846 ft | 452 kts | 74° |
| 2026-04-25 22:48 | 46.75760 | 5.66704 | 19693 ft | 451 kts | 74° |
| 2026-04-25 22:48 | 46.76547 | 5.71143 | 19565 ft | 451 kts | 73° |
| 2026-04-25 22:48 | 46.77331 | 5.75576 | 19423 ft | 450 kts | 73° |
| 2026-04-25 22:48 | 46.78111 | 5.79991 | 19289 ft | 449 kts | 73° |
| 2026-04-25 22:49 | 46.78888 | 5.84402 | 19174 ft | 448 kts | 73° |
| 2026-04-25 22:49 | 46.79662 | 5.88806 | 19052 ft | 447 kts | 73° |
| 2026-04-25 22:49 | 46.80423 | 5.93143 | 18947 ft | 446 kts | 73° |
| 2026-04-25 22:49 | 46.81191 | 5.97531 | 18831 ft | 445 kts | 73° |
| 2026-04-25 22:50 | 46.81955 | 6.01906 | 18713 ft | 444 kts | 73° |
| 2026-04-25 22:50 | 46.82717 | 6.06283 | 18593 ft | 443 kts | 73° |
| 2026-04-25 22:50 | 46.83477 | 6.10654 | 18484 ft | 443 kts | 73° |
| 2026-04-25 22:50 | 46.84225 | 6.14970 | 18366 ft | 442 kts | 73° |
| 2026-04-25 22:51 | 46.84976 | 6.19315 | 18225 ft | 441 kts | 73° |
| 2026-04-25 22:51 | 46.85725 | 6.23660 | 18094 ft | 439 kts | 73° |
| 2026-04-25 22:51 | 46.86472 | 6.28004 | 17961 ft | 438 kts | 73° |
| 2026-04-25 22:51 | 46.87212 | 6.32319 | 17836 ft | 437 kts | 73° |
| 2026-04-25 22:52 | 46.87950 | 6.36634 | 17694 ft | 436 kts | 73° |
| 2026-04-25 22:52 | 46.88677 | 6.40890 | 17562 ft | 435 kts | 73° |
| 2026-04-25 22:52 | 46.89407 | 6.45177 | 17482 ft | 432 kts | 73° |
| 2026-04-25 22:52 | 46.89887 | 6.48001 | 17453 ft | 431 kts | 73° |
| 2026-04-25 22:53 | 46.90855 | 6.53702 | 17338 ft | 430 kts | 73° |
| 2026-04-25 22:53 | 46.91574 | 6.57955 | 17249 ft | 429 kts | 73° |
| 2026-04-25 22:53 | 46.92288 | 6.62191 | 17184 ft | 428 kts | 73° |
| 2026-04-25 22:53 | 46.92989 | 6.66365 | 17119 ft | 428 kts | 73° |
| 2026-04-25 22:54 | 46.93702 | 6.70607 | 17056 ft | 429 kts | 73° |
| 2026-04-25 22:54 | 46.94413 | 6.74854 | 16958 ft | 429 kts | 73° |
| 2026-04-25 22:54 | 46.95122 | 6.79105 | 16909 ft | 429 kts | 74° |
| 2026-04-25 22:54 | 46.95830 | 6.83362 | 16786 ft | 429 kts | 73° |
| 2026-04-25 22:55 | 46.96536 | 6.87615 | 16714 ft | 429 kts | 73° |
| 2026-04-25 22:55 | 46.97230 | 6.91800 | 16642 ft | 428 kts | 73° |
| 2026-04-25 22:55 | 46.97704 | 6.94669 | 16582 ft | 428 kts | 73° |
| 2026-04-25 22:55 | 46.98395 | 6.98853 | 16524 ft | 428 kts | 73° |
| 2026-04-25 22:56 | 46.99327 | 7.04518 | 16421 ft | 427 kts | 73° |
| 2026-04-25 22:56 | 46.99787 | 7.07320 | 16378 ft | 427 kts | 73° |
| 2026-04-25 22:56 | 47.00482 | 7.11566 | 16251 ft | 427 kts | 73° |
| 2026-04-25 22:56 | 47.01171 | 7.15785 | 16128 ft | 427 kts | 74° |
| 2026-04-25 22:57 | 47.01860 | 7.20014 | 16003 ft | 426 kts | 74° |
| 2026-04-25 22:57 | 47.02547 | 7.24245 | 15872 ft | 425 kts | 74° |
| 2026-04-25 22:57 | 47.03231 | 7.28475 | 15755 ft | 424 kts | 74° |
| 2026-04-25 22:57 | 47.03902 | 7.32628 | 15638 ft | 423 kts | 74° |
| 2026-04-25 22:58 | 47.04578 | 7.36820 | 15510 ft | 421 kts | 74° |
| 2026-04-25 22:58 | 47.05250 | 7.40994 | 15389 ft | 420 kts | 74° |
| 2026-04-25 22:58 | 47.05919 | 7.45165 | 15268 ft | 418 kts | 74° |
| 2026-04-25 22:58 | 47.06583 | 7.49323 | 15135 ft | 417 kts | 74° |
| 2026-04-25 22:59 | 47.07236 | 7.53416 | 15036 ft | 416 kts | 74° |
| 2026-04-25 22:59 | 47.07894 | 7.57551 | 14901 ft | 415 kts | 74° |
| 2026-04-25 22:59 | 47.08550 | 7.61689 | 14789 ft | 414 kts | 74° |
| 2026-04-25 22:59 | 47.09201 | 7.65804 | 14672 ft | 413 kts | 74° |
| 2026-04-25 23:00 | 47.09849 | 7.69919 | 14545 ft | 413 kts | 74° |
| 2026-04-25 23:00 | 47.10486 | 7.73977 | 14431 ft | 412 kts | 74° |
| 2026-04-25 23:00 | 47.11129 | 7.78086 | 14311 ft | 412 kts | 75° |
| 2026-04-25 23:00 | 47.11766 | 7.82190 | 14189 ft | 411 kts | 75° |
| 2026-04-25 23:01 | 47.12402 | 7.86281 | 14082 ft | 410 kts | 75° |
| 2026-04-25 23:01 | 47.13045 | 7.90386 | 13954 ft | 409 kts | 75° |
| 2026-04-25 23:01 | 47.13700 | 7.94449 | 13829 ft | 407 kts | 72° |
| 2026-04-25 23:01 | 47.14695 | 7.98262 | 13690 ft | 403 kts | 62° |
| 2026-04-25 23:02 | 47.15971 | 8.01929 | 13557 ft | 402 kts | 60° |
| 2026-04-25 23:02 | 47.17233 | 8.05594 | 13421 ft | 402 kts | 62° |
| 2026-04-25 23:02 | 47.18447 | 8.09308 | 13298 ft | 402 kts | 62° |
| 2026-04-25 23:02 | 47.19619 | 8.12982 | 13164 ft | 399 kts | 62° |
| 2026-04-25 23:03 | 47.21099 | 8.16362 | 13027 ft | 394 kts | 44° |
| 2026-04-25 23:03 | 47.23222 | 8.18889 | 12895 ft | 389 kts | 35° |
| 2026-04-25 23:03 | 47.25266 | 8.21591 | 12755 ft | 399 kts | 45° |
| 2026-04-25 23:03 | 47.26953 | 8.24784 | 12644 ft | 400 kts | 54° |
| 2026-04-25 23:04 | 47.28429 | 8.28236 | 12525 ft | 395 kts | 57° |
| 2026-04-25 23:04 | 47.29822 | 8.31701 | 12272 ft | 382 kts | 57° |
| 2026-04-25 23:04 | 47.31073 | 8.34903 | 11824 ft | 340 kts | 57° |
| 2026-04-25 23:04 | 47.32184 | 8.37794 | 11376 ft | 309 kts | 57° |
| 2026-04-25 23:05 | 47.33191 | 8.40446 | 10963 ft | 285 kts | 57° |
| 2026-04-25 23:05 | 47.34106 | 8.42888 | 10560 ft | 266 kts | 60° |
| 2026-04-25 23:05 | 47.34623 | 8.45421 | 10119 ft | 254 kts | 85° |
| 2026-04-25 23:05 | 47.34542 | 8.47966 | 9728 ft | 244 kts | 93° |
| 2026-04-25 23:06 | 47.34347 | 8.50434 | 9255 ft | 242 kts | 94° |
| 2026-04-25 23:06 | 47.34136 | 8.52935 | 8524 ft | 246 kts | 95° |
| 2026-04-25 23:06 | 47.33928 | 8.55418 | 7787 ft | 247 kts | 95° |
| 2026-04-25 23:06 | 47.33719 | 8.57944 | 7064 ft | 248 kts | 95° |
| 2026-04-25 23:07 | 47.33515 | 8.60468 | 6331 ft | 247 kts | 95° |
| 2026-04-25 23:07 | 47.33312 | 8.62985 | 5604 ft | 246 kts | 95° |
| 2026-04-25 23:07 | 47.33109 | 8.65427 | 5176 ft | 232 kts | 95° |
| 2026-04-25 23:07 | 47.32915 | 8.67682 | 5045 ft | 214 kts | 95° |
| 2026-04-25 23:08 | 47.32726 | 8.69817 | 4988 ft | 206 kts | 95° |
| 2026-04-25 23:08 | 47.32537 | 8.71891 | 4978 ft | 205 kts | 95° |
| 2026-04-25 23:08 | 47.32351 | 8.73928 | 4987 ft | 196 kts | 95° |
| 2026-04-25 23:08 | 47.32317 | 8.75854 | 4977 ft | 185 kts | 70° |
| 2026-04-25 23:09 | 47.33138 | 8.77178 | 4976 ft | 179 kts | 16° |
| 2026-04-25 23:09 | 47.34360 | 8.77481 | 4978 ft | 182 kts | 9° |
| 2026-04-25 23:09 | 47.35613 | 8.77988 | 4989 ft | 185 kts | 15° |
| 2026-04-25 23:09 | 47.36844 | 8.78539 | 4978 ft | 184 kts | 15° |
| 2026-04-25 23:10 | 47.38042 | 8.79067 | 4952 ft | 180 kts | 14° |
| 2026-04-25 23:10 | 47.39243 | 8.79589 | 4979 ft | 182 kts | 14° |
| 2026-04-25 23:10 | 47.40473 | 8.80121 | 4984 ft | 186 kts | 14° |
| 2026-04-25 23:10 | 47.41709 | 8.80661 | 4972 ft | 184 kts | 16° |
| 2026-04-25 23:11 | 47.42963 | 8.80971 | 4971 ft | 185 kts | 346° |
| 2026-04-25 23:11 | 47.43942 | 8.79892 | 4974 ft | 182 kts | 293° |
| 2026-04-25 23:11 | 47.44146 | 8.78051 | 4882 ft | 189 kts | 271° |
| 2026-04-25 23:11 | 47.44262 | 8.76068 | 4363 ft | 191 kts | 275° |
| 2026-04-25 23:12 | 47.44395 | 8.74178 | 3992 ft | 177 kts | 275° |
| 2026-04-25 23:12 | 47.44515 | 8.72466 | 3696 ft | 162 kts | 275° |
| 2026-04-25 23:12 | 47.44629 | 8.70826 | 3459 ft | 161 kts | 275° |
| 2026-04-25 23:12 | 47.44750 | 8.69181 | 3231 ft | 157 kts | 276° |
| 2026-04-25 23:13 | 47.44862 | 8.67629 | 2972 ft | 146 kts | 275° |
| 2026-04-25 23:13 | 47.44965 | 8.66191 | 2806 ft | 140 kts | 275° |
| 2026-04-25 23:13 | 47.45073 | 8.64753 | 2598 ft | 141 kts | 275° |
| 2026-04-25 23:13 | 47.45180 | 8.63318 | 2378 ft | 139 kts | 274° |
| 2026-04-25 23:14 | 47.45290 | 8.61911 | 2158 ft | 136 kts | 274° |
| 2026-04-25 23:14 | 47.45406 | 8.60533 | 2058 ft | 135 kts | 277° |
| 2026-04-25 23:14 | 47.45510 | 8.59160 | 1883 ft | 136 kts | 276° |
| 2026-04-25 23:14 | 47.45609 | 8.57793 | 1638 ft | 132 kts | 276° |
| 2026-04-25 23:15 | 47.45700 | 8.56473 | 1437 ft | 128 kts | 276° |
| 2026-04-25 23:15 | 47.45780 | 8.55335 | 1405 ft | 84 kts | 276° |
| 2026-04-25 23:15 | 47.45827 | 8.54702 | 1406 ft | 45 kts | 276° |
| 2026-04-25 23:15 | 47.45855 | 8.54356 | 1408 ft | 20 kts | 289° |
| 2026-04-25 23:16 | 47.45930 | 8.54276 | 1410 ft | 2 kts | 23° |
| 2026-04-25 23:16 | 47.45954 | 8.54348 | 1409 ft | 12 kts | 87° |
| 2026-04-25 23:16 | 47.45949 | 8.54470 | 1408 ft | 12 kts | 96° |
| 2026-04-25 23:16 | 47.45940 | 8.54592 | 1408 ft | 12 kts | 96° |
| 2026-04-25 23:17 | 47.45931 | 8.54715 | 1409 ft | 12 kts | 96° |
| 2026-04-25 23:17 | 47.45922 | 8.54837 | 1404 ft | 12 kts | 96° |
| 2026-04-25 23:17 | 47.45913 | 8.54960 | 1398 ft | 12 kts | 96° |
| 2026-04-25 23:17 | 47.45905 | 8.55083 | 1407 ft | 12 kts | 96° |
| 2026-04-25 23:18 | 47.45896 | 8.55206 | 1402 ft | 12 kts | 96° |
| 2026-04-25 23:18 | 47.45888 | 8.55328 | 1403 ft | 12 kts | 96° |
| 2026-04-25 23:18 | 47.45879 | 8.55451 | 1405 ft | 12 kts | 96° |
| 2026-04-25 23:18 | 47.45906 | 8.55550 | 1408 ft | 12 kts | 19° |
| 2026-04-25 23:19 | 47.45950 | 8.55592 | 1410 ft | 5 kts | 69° |
| 2026-04-25 23:19 | 47.45953 | 8.55644 | 1404 ft | 5 kts | 91° |
| 2026-04-25 23:19 | 47.45950 | 8.55704 | 1402 ft | 8 kts | 95° |
| 2026-04-25 23:19 | 47.45946 | 8.55779 | 1404 ft | 3 kts | 88° |
| 2026-04-25 23:20 | 47.45960 | 8.55807 | 1409 ft | 4 kts | 38° |
| 2026-04-25 23:20 | 47.45991 | 8.55824 | 1407 ft | 6 kts | 13° |
| 2026-04-25 23:20 | 47.45999 | 8.55826 | 1406 ft | 5 kts | 11° |
| 2026-04-25 23:20 | 47.46036 | 8.55833 | 1406 ft | 0 kts | 7° |